<?xml version="1.0" encoding="UTF-8" standalone="no" ?><gpx xmlns="http://www.topografix.com/GPX/1/1" xmlns:gpxx="http://www.garmin.com/xmlschemas/GpxExtensions/v3" xmlns:gpxtrkx="http://www.garmin.com/xmlschemas/TrackStatsExtension/v1" xmlns:wptx1="http://www.garmin.com/xmlschemas/WaypointExtension/v1" xmlns:gpxtpx="http://www.garmin.com/xmlschemas/TrackPointExtension/v1" creator="GPSMAP 65s" version="1.1" xmlns:xsi="http://www.w3.org/2001/XMLSchema-instance" xsi:schemaLocation="http://www.topografix.com/GPX/1/1 http://www.topografix.com/GPX/1/1/gpx.xsd http://www.garmin.com/xmlschemas/GpxExtensions/v3 http://www8.garmin.com/xmlschemas/GpxExtensionsv3.xsd http://www.garmin.com/xmlschemas/TrackStatsExtension/v1 http://www8.garmin.com/xmlschemas/TrackStatsExtension.xsd http://www.garmin.com/xmlschemas/WaypointExtension/v1 http://www8.garmin.com/xmlschemas/WaypointExtensionv1.xsd http://www.garmin.com/xmlschemas/TrackPointExtension/v1 http://www.garmin.com/xmlschemas/TrackPointExtensionv1.xsd"><metadata><link href="http://www.garmin.com"><text>Garmin International</text></link><time>2026-09-03T01:39:17Z</time></metadata><trk><name>2026-09-03 05:39:13</name><extensions><gpxx:TrackExtension><gpxx:DisplayColor>Red</gpxx:DisplayColor></gpxx:TrackExtension><gpxtrkx:TrackStatsExtension><gpxtrkx:Distance>54243.000</gpxtrkx:Distance><gpxtrkx:TotalElapsedTime>23085</gpxtrkx:TotalElapsedTime><gpxtrkx:MovingTime>4531</gpxtrkx:MovingTime><gpxtrkx:StoppedTime>18547</gpxtrkx:StoppedTime><gpxtrkx:MovingSpeed>11.972</gpxtrkx:MovingSpeed><gpxtrkx:MaxSpeed>4.470</gpxtrkx:MaxSpeed><gpxtrkx:MaxElevation>104.259</gpxtrkx:MaxElevation><gpxtrkx:MinElevation>38.806</gpxtrkx:MinElevation><gpxtrkx:Ascent>36.000</gpxtrkx:Ascent><gpxtrkx:Descent>61.986</gpxtrkx:Descent><gpxtrkx:AvgAscentRate>0.007</gpxtrkx:AvgAscentRate><gpxtrkx:MaxAscentRate>0.096</gpxtrkx:MaxAscentRate><gpxtrkx:AvgDescentRate>0.006</gpxtrkx:AvgDescentRate><gpxtrkx:MaxDescentRate>-0.130</gpxtrkx:MaxDescentRate></gpxtrkx:TrackStatsExtension></extensions><trkseg><trkpt lat="59.5512123965" lon="31.2599195447"><ele>103.00</ele><time>2026-09-02T19:14:32Z</time></trkpt><trkpt lat="59.5511748455" lon="31.2598990928"><ele>102.95</ele><time>2026-09-02T19:14:57Z</time></trkpt><trkpt lat="59.5511586685" lon="31.2599427626"><ele>102.41</ele><time>2026-09-02T19:15:28Z</time></trkpt><trkpt lat="59.5511467662" lon="31.2599900365"><ele>101.60</ele><time>2026-09-02T19:15:59Z</time></trkpt><trkpt lat="59.5511639491" lon="31.2599696685"><ele>100.67</ele><time>2026-09-02T19:16:45Z</time></trkpt><trkpt lat="59.5511575788" lon="31.2599303573"><ele>99.99</ele><time>2026-09-02T19:17:40Z</time></trkpt><trkpt lat="59.5511232968" lon="31.2599437684"><ele>98.99</ele><time>2026-09-02T19:18:24Z</time></trkpt><trkpt lat="59.5511360373" lon="31.2599432655"><ele>97.93</ele><time>2026-09-02T19:19:18Z</time></trkpt><trkpt lat="59.5511473529" lon="31.2599410862"><ele>96.95</ele><time>2026-09-02T19:20:07Z</time></trkpt><trkpt lat="59.5511664636" lon="31.2599396612"><ele>96.00</ele><time>2026-09-02T19:21:08Z</time></trkpt><trkpt lat="59.5511681400" lon="31.2599312793"><ele>94.83</ele><time>2026-09-02T19:22:18Z</time></trkpt><trkpt lat="59.5511833951" lon="31.2599342968"><ele>94.00</ele><time>2026-09-02T19:23:13Z</time></trkpt><trkpt lat="59.5511906873" lon="31.2599453609"><ele>93.34</ele><time>2026-09-02T19:24:02Z</time></trkpt><trkpt lat="59.5511909388" lon="31.2599385716"><ele>92.37</ele><time>2026-09-02T19:25:03Z</time></trkpt><trkpt lat="59.5511853229" lon="31.2599274237"><ele>91.88</ele><time>2026-09-02T19:25:52Z</time></trkpt><trkpt lat="59.5511814672" lon="31.2599168625"><ele>91.39</ele><time>2026-09-02T19:26:46Z</time></trkpt><trkpt lat="59.5511959679" lon="31.2599131744"><ele>90.51</ele><time>2026-09-02T19:27:32Z</time></trkpt><trkpt lat="59.5511973929" lon="31.2599394936"><ele>90.01</ele><time>2026-09-02T19:28:23Z</time></trkpt><trkpt lat="59.5511806291" lon="31.2599425949"><ele>89.27</ele><time>2026-09-02T19:29:19Z</time></trkpt><trkpt lat="59.5511862449" lon="31.2599327881"><ele>88.57</ele><time>2026-09-02T19:30:16Z</time></trkpt><trkpt lat="59.5511884242" lon="31.2599338777"><ele>87.71</ele><time>2026-09-02T19:31:16Z</time></trkpt><trkpt lat="59.5511347800" lon="31.2599272560"><ele>87.01</ele><time>2026-09-02T19:32:11Z</time></trkpt><trkpt lat="59.5511467662" lon="31.2599128392"><ele>86.14</ele><time>2026-09-02T19:33:09Z</time></trkpt><trkpt lat="59.5511390548" lon="31.2599345483"><ele>85.53</ele><time>2026-09-02T19:34:07Z</time></trkpt><trkpt lat="59.5511369593" lon="31.2599112466"><ele>84.83</ele><time>2026-09-02T19:35:01Z</time></trkpt><trkpt lat="59.5511616860" lon="31.2599242385"><ele>84.74</ele><time>2026-09-02T19:35:41Z</time></trkpt><trkpt lat="59.5511542261" lon="31.2599178683"><ele>83.87</ele><time>2026-09-02T19:36:25Z</time></trkpt><trkpt lat="59.5511736721" lon="31.2599356379"><ele>83.55</ele><time>2026-09-02T19:36:59Z</time></trkpt><trkpt lat="59.5511617698" lon="31.2599354703"><ele>83.68</ele><time>2026-09-02T19:37:28Z</time></trkpt><trkpt lat="59.5511608478" lon="31.2599398289"><ele>82.92</ele><time>2026-09-02T19:37:57Z</time></trkpt><trkpt lat="59.5511572435" lon="31.2599451933"><ele>82.65</ele><time>2026-09-02T19:38:35Z</time></trkpt><trkpt lat="59.5511600934" lon="31.2599073909"><ele>77.94</ele><time>2026-09-02T19:39:20Z</time></trkpt><trkpt lat="59.5511596743" lon="31.2599016074"><ele>77.93</ele><time>2026-09-02T19:39:21Z</time></trkpt><trkpt lat="59.5511537232" lon="31.2598947342"><ele>81.93</ele><time>2026-09-02T19:39:25Z</time></trkpt><trkpt lat="59.5511566568" lon="31.2599041220"><ele>81.91</ele><time>2026-09-02T19:39:30Z</time></trkpt><trkpt lat="59.5511329360" lon="31.2599310279"><ele>81.24</ele><time>2026-09-02T19:39:46Z</time></trkpt><trkpt lat="59.5511460956" lon="31.2599143479"><ele>81.31</ele><time>2026-09-02T19:40:14Z</time></trkpt><trkpt lat="59.5511646196" lon="31.2599245738"><ele>81.21</ele><time>2026-09-02T19:40:31Z</time></trkpt><trkpt lat="59.5512266457" lon="31.2600349635"><ele>80.80</ele><time>2026-09-02T19:40:43Z</time></trkpt><trkpt lat="59.5512566529" lon="31.2601241469"><ele>79.68</ele><time>2026-09-02T19:40:57Z</time></trkpt><trkpt lat="59.5513544697" lon="31.2602383923"><ele>80.59</ele><time>2026-09-02T19:41:13Z</time></trkpt><trkpt lat="59.5513701439" lon="31.2602589279"><ele>80.22</ele><time>2026-09-02T19:41:36Z</time></trkpt><trkpt lat="59.5513719879" lon="31.2602700759"><ele>79.05</ele><time>2026-09-02T19:41:57Z</time></trkpt><trkpt lat="59.5514500234" lon="31.2603887636"><ele>79.53</ele><time>2026-09-02T19:42:14Z</time></trkpt><trkpt lat="59.5514440723" lon="31.2604049407"><ele>79.26</ele><time>2026-09-02T19:42:51Z</time></trkpt><trkpt lat="59.5514427312" lon="31.2603984866"><ele>78.83</ele><time>2026-09-02T19:43:33Z</time></trkpt><trkpt lat="59.5514504425" lon="31.2604000792"><ele>78.36</ele><time>2026-09-02T19:44:21Z</time></trkpt><trkpt lat="59.5514496882" lon="31.2604169268"><ele>78.07</ele><time>2026-09-02T19:44:52Z</time></trkpt><trkpt lat="59.5514453296" lon="31.2604362890"><ele>77.97</ele><time>2026-09-02T19:45:36Z</time></trkpt><trkpt lat="59.5514438208" lon="31.2604357861"><ele>77.31</ele><time>2026-09-02T19:45:38Z</time></trkpt><trkpt lat="59.5513885841" lon="31.2605814636"><ele>76.01</ele><time>2026-09-02T19:45:56Z</time></trkpt><trkpt lat="59.5513740834" lon="31.2606723234"><ele>75.15</ele><time>2026-09-02T19:46:26Z</time></trkpt><trkpt lat="59.5513678808" lon="31.2606661208"><ele>75.49</ele><time>2026-09-02T19:47:14Z</time></trkpt><trkpt lat="59.5513449982" lon="31.2606752571"><ele>73.95</ele><time>2026-09-02T19:47:42Z</time></trkpt><trkpt lat="59.5513226185" lon="31.2606538832"><ele>74.20</ele><time>2026-09-02T19:48:43Z</time></trkpt><trkpt lat="59.5513050165" lon="31.2606767658"><ele>75.36</ele><time>2026-09-02T19:48:48Z</time></trkpt><trkpt lat="59.5512714889" lon="31.2607682962"><ele>74.30</ele><time>2026-09-02T19:49:15Z</time></trkpt><trkpt lat="59.5512012485" lon="31.2607353553"><ele>73.94</ele><time>2026-09-02T19:49:39Z</time></trkpt><trkpt lat="59.5511300862" lon="31.2606969662"><ele>73.97</ele><time>2026-09-02T19:50:05Z</time></trkpt><trkpt lat="59.5511200279" lon="31.2606943678"><ele>73.52</ele><time>2026-09-02T19:50:45Z</time></trkpt><trkpt lat="59.5510655455" lon="31.2606397178"><ele>73.53</ele><time>2026-09-02T19:51:29Z</time></trkpt><trkpt lat="59.5510228816" lon="31.2605707347"><ele>73.58</ele><time>2026-09-02T19:51:49Z</time></trkpt><trkpt lat="59.5509779546" lon="31.2604448386"><ele>73.44</ele><time>2026-09-02T19:52:07Z</time></trkpt><trkpt lat="59.5508965664" lon="31.2603942957"><ele>73.43</ele><time>2026-09-02T19:52:24Z</time></trkpt><trkpt lat="59.5508014318" lon="31.2605670467"><ele>72.57</ele><time>2026-09-02T19:52:38Z</time></trkpt><trkpt lat="59.5508138370" lon="31.2605545577"><ele>72.90</ele><time>2026-09-02T19:53:23Z</time></trkpt><trkpt lat="59.5507836621" lon="31.2606589962"><ele>71.42</ele><time>2026-09-02T19:53:42Z</time></trkpt><trkpt lat="59.5507823210" lon="31.2606625166"><ele>71.52</ele><time>2026-09-02T19:53:43Z</time></trkpt><trkpt lat="59.5507103205" lon="31.2608732376"><ele>72.08</ele><time>2026-09-02T19:54:12Z</time></trkpt><trkpt lat="59.5506685786" lon="31.2612215895"><ele>72.04</ele><time>2026-09-02T19:54:27Z</time></trkpt><trkpt lat="59.5506358054" lon="31.2614200730"><ele>72.05</ele><time>2026-09-02T19:54:44Z</time></trkpt><trkpt lat="59.5505755395" lon="31.2616443727"><ele>72.22</ele><time>2026-09-02T19:55:00Z</time></trkpt><trkpt lat="59.5504894573" lon="31.2619325425"><ele>72.64</ele><time>2026-09-02T19:55:18Z</time></trkpt><trkpt lat="59.5503959991" lon="31.2620729394"><ele>71.71</ele><time>2026-09-02T19:55:38Z</time></trkpt><trkpt lat="59.5503785647" lon="31.2620528229"><ele>71.70</ele><time>2026-09-02T19:56:15Z</time></trkpt><trkpt lat="59.5503855217" lon="31.2620547507"><ele>72.40</ele><time>2026-09-02T19:56:28Z</time></trkpt><trkpt lat="59.5504188817" lon="31.2619867735"><ele>70.16</ele><time>2026-09-02T19:56:47Z</time></trkpt><trkpt lat="59.5504126791" lon="31.2619875278"><ele>71.45</ele><time>2026-09-02T19:56:52Z</time></trkpt><trkpt lat="59.5504011959" lon="31.2620019447"><ele>71.27</ele><time>2026-09-02T19:57:40Z</time></trkpt><trkpt lat="59.5503805764" lon="31.2619894557"><ele>71.05</ele><time>2026-09-02T19:58:35Z</time></trkpt><trkpt lat="59.5502941590" lon="31.2619782239"><ele>71.10</ele><time>2026-09-02T19:58:46Z</time></trkpt><trkpt lat="59.5502367429" lon="31.2619713508"><ele>71.90</ele><time>2026-09-02T19:58:53Z</time></trkpt><trkpt lat="59.5501648262" lon="31.2619704287"><ele>71.37</ele><time>2026-09-02T19:59:08Z</time></trkpt><trkpt lat="59.5500946697" lon="31.2619258370"><ele>70.40</ele><time>2026-09-02T19:59:27Z</time></trkpt><trkpt lat="59.5500457194" lon="31.2619326264"><ele>70.67</ele><time>2026-09-02T19:59:46Z</time></trkpt><trkpt lat="59.5500174724" lon="31.2619724404"><ele>71.09</ele><time>2026-09-02T20:00:17Z</time></trkpt><trkpt lat="59.5499747247" lon="31.2620575167"><ele>71.19</ele><time>2026-09-02T20:00:43Z</time></trkpt><trkpt lat="59.5499288756" lon="31.2620881945"><ele>71.15</ele><time>2026-09-02T20:01:22Z</time></trkpt><trkpt lat="59.5498984493" lon="31.2621202972"><ele>71.18</ele><time>2026-09-02T20:01:50Z</time></trkpt><trkpt lat="59.5498991199" lon="31.2621377315"><ele>70.36</ele><time>2026-09-02T20:02:25Z</time></trkpt><trkpt lat="59.5498493314" lon="31.2622325309"><ele>70.98</ele><time>2026-09-02T20:02:51Z</time></trkpt><trkpt lat="59.5498177316" lon="31.2622798886"><ele>71.26</ele><time>2026-09-02T20:03:36Z</time></trkpt><trkpt lat="59.5496998820" lon="31.2622409966"><ele>70.68</ele><time>2026-09-02T20:03:50Z</time></trkpt><trkpt lat="59.5495776739" lon="31.2621956505"><ele>71.63</ele><time>2026-09-02T20:04:09Z</time></trkpt><trkpt lat="59.5494206809" lon="31.2621177826"><ele>71.32</ele><time>2026-09-02T20:04:22Z</time></trkpt><trkpt lat="59.5493055973" lon="31.2621129211"><ele>71.61</ele><time>2026-09-02T20:04:42Z</time></trkpt><trkpt lat="59.5493201818" lon="31.2620656472"><ele>71.67</ele><time>2026-09-02T20:05:16Z</time></trkpt><trkpt lat="59.5492081996" lon="31.2620068062"><ele>71.87</ele><time>2026-09-02T20:05:34Z</time></trkpt><trkpt lat="59.5491581596" lon="31.2619955745"><ele>71.04</ele><time>2026-09-02T20:05:38Z</time></trkpt><trkpt lat="59.5490299165" lon="31.2619054690"><ele>71.72</ele><time>2026-09-02T20:05:51Z</time></trkpt><trkpt lat="59.5489013381" lon="31.2618179619"><ele>71.55</ele><time>2026-09-02T20:06:06Z</time></trkpt><trkpt lat="59.5487588458" lon="31.2617306225"><ele>71.45</ele><time>2026-09-02T20:06:20Z</time></trkpt><trkpt lat="59.5486196224" lon="31.2616674230"><ele>70.84</ele><time>2026-09-02T20:06:34Z</time></trkpt><trkpt lat="59.5485020243" lon="31.2616132759"><ele>70.73</ele><time>2026-09-02T20:06:51Z</time></trkpt><trkpt lat="59.5484433509" lon="31.2616060674"><ele>71.01</ele><time>2026-09-02T20:07:25Z</time></trkpt><trkpt lat="59.5484272577" lon="31.2615799997"><ele>70.32</ele><time>2026-09-02T20:07:36Z</time></trkpt><trkpt lat="59.5484302752" lon="31.2616192270"><ele>72.18</ele><time>2026-09-02T20:07:41Z</time></trkpt><trkpt lat="59.5483873598" lon="31.2618077360"><ele>69.12</ele><time>2026-09-02T20:07:54Z</time></trkpt><trkpt lat="59.5483072288" lon="31.2619764637"><ele>68.96</ele><time>2026-09-02T20:08:06Z</time></trkpt><trkpt lat="59.5482680015" lon="31.2620348018"><ele>67.68</ele><time>2026-09-02T20:08:09Z</time></trkpt><trkpt lat="59.5482174587" lon="31.2621614523"><ele>67.09</ele><time>2026-09-02T20:08:14Z</time></trkpt><trkpt lat="59.5481802430" lon="31.2622524798"><ele>66.86</ele><time>2026-09-02T20:08:18Z</time></trkpt><trkpt lat="59.5481442846" lon="31.2624487840"><ele>67.02</ele><time>2026-09-02T20:08:33Z</time></trkpt><trkpt lat="59.5481286943" lon="31.2625429966"><ele>65.63</ele><time>2026-09-02T20:08:46Z</time></trkpt><trkpt lat="59.5481297839" lon="31.2625203654"><ele>66.02</ele><time>2026-09-02T20:09:13Z</time></trkpt><trkpt lat="59.5481376629" lon="31.2624351215"><ele>66.05</ele><time>2026-09-02T20:09:30Z</time></trkpt><trkpt lat="59.5480804984" lon="31.2625628617"><ele>64.37</ele><time>2026-09-02T20:09:57Z</time></trkpt><trkpt lat="59.5480552688" lon="31.2627374567"><ele>64.81</ele><time>2026-09-02T20:10:20Z</time></trkpt><trkpt lat="59.5480542630" lon="31.2628907617"><ele>63.26</ele><time>2026-09-02T20:10:35Z</time></trkpt><trkpt lat="59.5479903929" lon="31.2630093656"><ele>62.71</ele><time>2026-09-02T20:10:47Z</time></trkpt><trkpt lat="59.5479608886" lon="31.2630347628"><ele>62.50</ele><time>2026-09-02T20:10:51Z</time></trkpt><trkpt lat="59.5478579588" lon="31.2631598208"><ele>62.36</ele><time>2026-09-02T20:11:04Z</time></trkpt><trkpt lat="59.5477998722" lon="31.2632427178"><ele>61.74</ele><time>2026-09-02T20:11:16Z</time></trkpt><trkpt lat="59.5477304701" lon="31.2633258663"><ele>61.28</ele><time>2026-09-02T20:11:28Z</time></trkpt><trkpt lat="59.5476913266" lon="31.2633487489"><ele>60.88</ele><time>2026-09-02T20:11:46Z</time></trkpt><trkpt lat="59.5476738922" lon="31.2634358369"><ele>61.24</ele><time>2026-09-02T20:12:00Z</time></trkpt><trkpt lat="59.5476458967" lon="31.2635158841"><ele>60.53</ele><time>2026-09-02T20:12:04Z</time></trkpt><trkpt lat="59.5476024784" lon="31.2635927461"><ele>60.58</ele><time>2026-09-02T20:12:09Z</time></trkpt><trkpt lat="59.5475302264" lon="31.2637316342"><ele>60.30</ele><time>2026-09-02T20:12:19Z</time></trkpt><trkpt lat="59.5474635903" lon="31.2637383398"><ele>59.18</ele><time>2026-09-02T20:12:26Z</time></trkpt><trkpt lat="59.5474082697" lon="31.2639191374"><ele>60.18</ele><time>2026-09-02T20:12:38Z</time></trkpt><trkpt lat="59.5473911706" lon="31.2639069837"><ele>60.12</ele><time>2026-09-02T20:13:03Z</time></trkpt><trkpt lat="59.5473953616" lon="31.2639249209"><ele>59.62</ele><time>2026-09-02T20:13:39Z</time></trkpt><trkpt lat="59.5473632589" lon="31.2640620489"><ele>59.86</ele><time>2026-09-02T20:13:51Z</time></trkpt><trkpt lat="59.5473308209" lon="31.2641593628"><ele>60.07</ele><time>2026-09-02T20:14:06Z</time></trkpt><trkpt lat="59.5473075192" lon="31.2642321177"><ele>55.89</ele><time>2026-09-02T20:14:12Z</time></trkpt><trkpt lat="59.5473025739" lon="31.2642496359"><ele>57.62</ele><time>2026-09-02T20:14:13Z</time></trkpt><trkpt lat="59.5473003946" lon="31.2642622925"><ele>63.74</ele><time>2026-09-02T20:14:14Z</time></trkpt><trkpt lat="59.5472979639" lon="31.2642735243"><ele>61.42</ele><time>2026-09-02T20:14:15Z</time></trkpt><trkpt lat="59.5472949464" lon="31.2643004302"><ele>59.66</ele><time>2026-09-02T20:14:17Z</time></trkpt><trkpt lat="59.5472886600" lon="31.2645593472"><ele>59.09</ele><time>2026-09-02T20:14:30Z</time></trkpt><trkpt lat="59.5473092794" lon="31.2646878418"><ele>59.43</ele><time>2026-09-02T20:14:46Z</time></trkpt><trkpt lat="59.5473322459" lon="31.2650046777"><ele>58.91</ele><time>2026-09-02T20:15:03Z</time></trkpt><trkpt lat="59.5473773405" lon="31.2653423846"><ele>58.85</ele><time>2026-09-02T20:15:21Z</time></trkpt><trkpt lat="59.5474233571" lon="31.2655201647"><ele>58.22</ele><time>2026-09-02T20:15:36Z</time></trkpt><trkpt lat="59.5474877302" lon="31.2657767348"><ele>58.52</ele><time>2026-09-02T20:15:49Z</time></trkpt><trkpt lat="59.5475240238" lon="31.2658466399"><ele>58.17</ele><time>2026-09-02T20:16:08Z</time></trkpt><trkpt lat="59.5475366805" lon="31.2659091689"><ele>58.15</ele><time>2026-09-02T20:16:26Z</time></trkpt><trkpt lat="59.5475606527" lon="31.2658855319"><ele>58.34</ele><time>2026-09-02T20:16:57Z</time></trkpt><trkpt lat="59.5475570485" lon="31.2658639904"><ele>57.23</ele><time>2026-09-02T20:17:06Z</time></trkpt><trkpt lat="59.5476137940" lon="31.2659600470"><ele>58.60</ele><time>2026-09-02T20:17:18Z</time></trkpt><trkpt lat="59.5476886444" lon="31.2660225760"><ele>57.83</ele><time>2026-09-02T20:17:36Z</time></trkpt><trkpt lat="59.5477346610" lon="31.2660559360"><ele>58.94</ele><time>2026-09-02T20:17:46Z</time></trkpt><trkpt lat="59.5477667637" lon="31.2661514897"><ele>59.11</ele><time>2026-09-02T20:18:17Z</time></trkpt><trkpt lat="59.5478038955" lon="31.2660624739"><ele>58.47</ele><time>2026-09-02T20:18:56Z</time></trkpt><trkpt lat="59.5478378423" lon="31.2661402579"><ele>57.80</ele><time>2026-09-02T20:19:46Z</time></trkpt><trkpt lat="59.5479475614" lon="31.2662601192"><ele>57.91</ele><time>2026-09-02T20:20:01Z</time></trkpt><trkpt lat="59.5479995292" lon="31.2663809862"><ele>57.37</ele><time>2026-09-02T20:20:17Z</time></trkpt><trkpt lat="59.5481028780" lon="31.2665786315"><ele>57.89</ele><time>2026-09-02T20:20:30Z</time></trkpt><trkpt lat="59.5481089968" lon="31.2665927969"><ele>58.47</ele><time>2026-09-02T20:20:32Z</time></trkpt><trkpt lat="59.5482439455" lon="31.2668067869"><ele>57.58</ele><time>2026-09-02T20:20:47Z</time></trkpt><trkpt lat="59.5482592843" lon="31.2669908535"><ele>58.81</ele><time>2026-09-02T20:21:00Z</time></trkpt><trkpt lat="59.5482583623" lon="31.2671266403"><ele>59.76</ele><time>2026-09-02T20:21:10Z</time></trkpt><trkpt lat="59.5482583623" lon="31.2671753392"><ele>59.09</ele><time>2026-09-02T20:21:13Z</time></trkpt><trkpt lat="59.5482665766" lon="31.2674817815"><ele>60.13</ele><time>2026-09-02T20:21:27Z</time></trkpt><trkpt lat="59.5482349768" lon="31.2678000424"><ele>59.37</ele><time>2026-09-02T20:21:46Z</time></trkpt><trkpt lat="59.5482319593" lon="31.2678448018"><ele>60.84</ele><time>2026-09-02T20:21:49Z</time></trkpt><trkpt lat="59.5481785666" lon="31.2680978514"><ele>59.90</ele><time>2026-09-02T20:22:01Z</time></trkpt><trkpt lat="59.5481563546" lon="31.2681406830"><ele>60.50</ele><time>2026-09-02T20:22:15Z</time></trkpt><trkpt lat="59.5481390879" lon="31.2681247573"><ele>56.99</ele><time>2026-09-02T20:22:24Z</time></trkpt><trkpt lat="59.5481367409" lon="31.2681263499"><ele>60.15</ele><time>2026-09-02T20:22:25Z</time></trkpt><trkpt lat="59.5481181331" lon="31.2681447901"><ele>58.77</ele><time>2026-09-02T20:22:28Z</time></trkpt><trkpt lat="59.5480617229" lon="31.2683135178"><ele>58.82</ele><time>2026-09-02T20:22:48Z</time></trkpt><trkpt lat="59.5480864495" lon="31.2684772164"><ele>58.97</ele><time>2026-09-02T20:22:59Z</time></trkpt><trkpt lat="59.5480749663" lon="31.2683959957"><ele>59.31</ele><time>2026-09-02T20:23:37Z</time></trkpt><trkpt lat="59.5480495691" lon="31.2684377376"><ele>59.30</ele><time>2026-09-02T20:24:14Z</time></trkpt><trkpt lat="59.5480687637" lon="31.2686073873"><ele>58.94</ele><time>2026-09-02T20:24:31Z</time></trkpt><trkpt lat="59.5480707753" lon="31.2687994167"><ele>58.22</ele><time>2026-09-02T20:24:48Z</time></trkpt><trkpt lat="59.5480486471" lon="31.2689687312"><ele>59.18</ele><time>2026-09-02T20:25:00Z</time></trkpt><trkpt lat="59.5480569452" lon="31.2690431625"><ele>60.03</ele><time>2026-09-02T20:25:10Z</time></trkpt><trkpt lat="59.5481011178" lon="31.2691801228"><ele>59.80</ele><time>2026-09-02T20:25:27Z</time></trkpt><trkpt lat="59.5481483918" lon="31.2693935260"><ele>59.46</ele><time>2026-09-02T20:25:39Z</time></trkpt><trkpt lat="59.5481536724" lon="31.2694167439"><ele>59.22</ele><time>2026-09-02T20:25:40Z</time></trkpt><trkpt lat="59.5481791534" lon="31.2696431391"><ele>60.21</ele><time>2026-09-02T20:25:53Z</time></trkpt><trkpt lat="59.5482087415" lon="31.2698073406"><ele>60.16</ele><time>2026-09-02T20:26:02Z</time></trkpt><trkpt lat="59.5482175425" lon="31.2701455504"><ele>60.46</ele><time>2026-09-02T20:26:17Z</time></trkpt><trkpt lat="59.5482560992" lon="31.2703633960"><ele>60.46</ele><time>2026-09-02T20:26:29Z</time></trkpt><trkpt lat="59.5482804906" lon="31.2704673316"><ele>60.50</ele><time>2026-09-02T20:26:35Z</time></trkpt><trkpt lat="59.5482942369" lon="31.2705156952"><ele>60.48</ele><time>2026-09-02T20:26:38Z</time></trkpt><trkpt lat="59.5482945722" lon="31.2707115803"><ele>59.55</ele><time>2026-09-02T20:26:50Z</time></trkpt><trkpt lat="59.5482669957" lon="31.2707812339"><ele>59.39</ele><time>2026-09-02T20:27:04Z</time></trkpt><trkpt lat="59.5482681692" lon="31.2707671523"><ele>59.34</ele><time>2026-09-02T20:27:53Z</time></trkpt><trkpt lat="59.5482226554" lon="31.2709584273"><ele>59.15</ele><time>2026-09-02T20:28:20Z</time></trkpt><trkpt lat="59.5481824223" lon="31.2711109780"><ele>59.61</ele><time>2026-09-02T20:28:34Z</time></trkpt><trkpt lat="59.5481553487" lon="31.2712120637"><ele>56.46</ele><time>2026-09-02T20:28:45Z</time></trkpt><trkpt lat="59.5481491461" lon="31.2712197751"><ele>59.52</ele><time>2026-09-02T20:28:48Z</time></trkpt><trkpt lat="59.5481348969" lon="31.2712303363"><ele>59.50</ele><time>2026-09-02T20:29:05Z</time></trkpt><trkpt lat="59.5480801631" lon="31.2713237945"><ele>58.69</ele><time>2026-09-02T20:29:20Z</time></trkpt><trkpt lat="59.5480750501" lon="31.2713324279"><ele>58.06</ele><time>2026-09-02T20:29:21Z</time></trkpt><trkpt lat="59.5479889680" lon="31.2715015747"><ele>59.15</ele><time>2026-09-02T20:29:32Z</time></trkpt><trkpt lat="59.5479715336" lon="31.2716377806"><ele>59.07</ele><time>2026-09-02T20:29:39Z</time></trkpt><trkpt lat="59.5479514170" lon="31.2717326637"><ele>60.11</ele><time>2026-09-02T20:29:45Z</time></trkpt><trkpt lat="59.5479129441" lon="31.2718097772"><ele>59.48</ele><time>2026-09-02T20:29:57Z</time></trkpt><trkpt lat="59.5479354914" lon="31.2718402874"><ele>59.40</ele><time>2026-09-02T20:30:31Z</time></trkpt><trkpt lat="59.5479344856" lon="31.2718394492"><ele>58.69</ele><time>2026-09-02T20:31:05Z</time></trkpt><trkpt lat="59.5479341503" lon="31.2719173171"><ele>59.41</ele><time>2026-09-02T20:31:52Z</time></trkpt><trkpt lat="59.5479057357" lon="31.2720013037"><ele>60.86</ele><time>2026-09-02T20:32:37Z</time></trkpt><trkpt lat="59.5478733815" lon="31.2721535191"><ele>58.20</ele><time>2026-09-02T20:32:59Z</time></trkpt><trkpt lat="59.5478744712" lon="31.2722728774"><ele>59.96</ele><time>2026-09-02T20:33:09Z</time></trkpt><trkpt lat="59.5478559472" lon="31.2724514958"><ele>59.79</ele><time>2026-09-02T20:33:22Z</time></trkpt><trkpt lat="59.5478669275" lon="31.2725792360"><ele>58.98</ele><time>2026-09-02T20:33:31Z</time></trkpt><trkpt lat="59.5478304662" lon="31.2727499753"><ele>60.14</ele><time>2026-09-02T20:33:46Z</time></trkpt><trkpt lat="59.5478340704" lon="31.2728319503"><ele>59.73</ele><time>2026-09-02T20:34:14Z</time></trkpt><trkpt lat="59.5478698611" lon="31.2727717683"><ele>59.19</ele><time>2026-09-02T20:35:05Z</time></trkpt><trkpt lat="59.5477826893" lon="31.2729013525"><ele>59.89</ele><time>2026-09-02T20:35:18Z</time></trkpt><trkpt lat="59.5477191545" lon="31.2731159292"><ele>59.20</ele><time>2026-09-02T20:35:35Z</time></trkpt><trkpt lat="59.5476885606" lon="31.2731726747"><ele>58.70</ele><time>2026-09-02T20:35:42Z</time></trkpt><trkpt lat="59.5476199128" lon="31.2733108923"><ele>59.74</ele><time>2026-09-02T20:35:53Z</time></trkpt><trkpt lat="59.5475941803" lon="31.2734589167"><ele>58.95</ele><time>2026-09-02T20:36:08Z</time></trkpt><trkpt lat="59.5475612395" lon="31.2735988945"><ele>59.63</ele><time>2026-09-02T20:36:26Z</time></trkpt><trkpt lat="59.5475820266" lon="31.2735219486"><ele>58.73</ele><time>2026-09-02T20:36:33Z</time></trkpt><trkpt lat="59.5475440565" lon="31.2737578992"><ele>59.76</ele><time>2026-09-02T20:36:44Z</time></trkpt><trkpt lat="59.5475390274" lon="31.2740072608"><ele>58.89</ele><time>2026-09-02T20:36:59Z</time></trkpt><trkpt lat="59.5475440565" lon="31.2742191553"><ele>59.32</ele><time>2026-09-02T20:37:13Z</time></trkpt><trkpt lat="59.5475603174" lon="31.2742978614"><ele>60.15</ele><time>2026-09-02T20:37:27Z</time></trkpt><trkpt lat="59.5475727227" lon="31.2742474861"><ele>54.16</ele><time>2026-09-02T20:38:16Z</time></trkpt><trkpt lat="59.5475717168" lon="31.2742476538"><ele>64.36</ele><time>2026-09-02T20:38:17Z</time></trkpt><trkpt lat="59.5475719683" lon="31.2742600590"><ele>60.64</ele><time>2026-09-02T20:38:20Z</time></trkpt><trkpt lat="59.5475733932" lon="31.2742625736"><ele>60.40</ele><time>2026-09-02T20:38:21Z</time></trkpt><trkpt lat="59.5475837868" lon="31.2744026352"><ele>60.48</ele><time>2026-09-02T20:38:45Z</time></trkpt><trkpt lat="59.5475964434" lon="31.2744661700"><ele>60.67</ele><time>2026-09-02T20:38:49Z</time></trkpt><trkpt lat="59.5476092678" lon="31.2747074850"><ele>60.89</ele><time>2026-09-02T20:39:05Z</time></trkpt><trkpt lat="59.5476219244" lon="31.2747588661"><ele>61.84</ele><time>2026-09-02T20:39:27Z</time></trkpt><trkpt lat="59.5476276241" lon="31.2749567628"><ele>60.96</ele><time>2026-09-02T20:39:43Z</time></trkpt><trkpt lat="59.5476278756" lon="31.2749580201"><ele>62.10</ele><time>2026-09-02T20:40:03Z</time></trkpt><trkpt lat="59.5476181526" lon="31.2748749554"><ele>50.86</ele><time>2026-09-02T20:40:09Z</time></trkpt><trkpt lat="59.5476180688" lon="31.2748705968"><ele>63.50</ele><time>2026-09-02T20:40:10Z</time></trkpt><trkpt lat="59.5476213377" lon="31.2747601233"><ele>59.72</ele><time>2026-09-02T20:40:17Z</time></trkpt><trkpt lat="59.5476440527" lon="31.2746498175"><ele>61.42</ele><time>2026-09-02T20:40:56Z</time></trkpt><trkpt lat="59.5476425439" lon="31.2746863626"><ele>61.46</ele><time>2026-09-02T20:41:50Z</time></trkpt><trkpt lat="59.5476318989" lon="31.2745603826"><ele>61.01</ele><time>2026-09-02T20:42:07Z</time></trkpt><trkpt lat="59.5477504190" lon="31.2743991986"><ele>60.09</ele><time>2026-09-02T20:42:39Z</time></trkpt><trkpt lat="59.5478438772" lon="31.2743186485"><ele>61.81</ele><time>2026-09-02T20:43:00Z</time></trkpt><trkpt lat="59.5479183923" lon="31.2743824348"><ele>54.84</ele><time>2026-09-02T20:43:17Z</time></trkpt><trkpt lat="59.5479346532" lon="31.2743970193"><ele>61.69</ele><time>2026-09-02T20:43:18Z</time></trkpt><trkpt lat="59.5480309613" lon="31.2744277809"><ele>60.66</ele><time>2026-09-02T20:43:42Z</time></trkpt><trkpt lat="59.5481055602" lon="31.2744021323"><ele>60.22</ele><time>2026-09-02T20:44:06Z</time></trkpt><trkpt lat="59.5482110884" lon="31.2744607218"><ele>60.26</ele><time>2026-09-02T20:44:24Z</time></trkpt><trkpt lat="59.5483064745" lon="31.2745843548"><ele>60.08</ele><time>2026-09-02T20:44:40Z</time></trkpt><trkpt lat="59.5483901259" lon="31.2747445330"><ele>60.51</ele><time>2026-09-02T20:44:54Z</time></trkpt><trkpt lat="59.5484661497" lon="31.2748322915"><ele>59.78</ele><time>2026-09-02T20:45:08Z</time></trkpt><trkpt lat="59.5485273376" lon="31.2748428527"><ele>61.23</ele><time>2026-09-02T20:45:21Z</time></trkpt><trkpt lat="59.5486052893" lon="31.2749295216"><ele>59.92</ele><time>2026-09-02T20:45:41Z</time></trkpt><trkpt lat="59.5486399904" lon="31.2748841755"><ele>60.52</ele><time>2026-09-02T20:46:16Z</time></trkpt><trkpt lat="59.5486373920" lon="31.2749219779"><ele>61.36</ele><time>2026-09-02T20:46:42Z</time></trkpt><trkpt lat="59.5486376435" lon="31.2749210559"><ele>57.77</ele><time>2026-09-02T20:46:44Z</time></trkpt><trkpt lat="59.5486384816" lon="31.2749199662"><ele>62.27</ele><time>2026-09-02T20:46:46Z</time></trkpt><trkpt lat="59.5486687403" lon="31.2749225646"><ele>58.94</ele><time>2026-09-02T20:46:55Z</time></trkpt><trkpt lat="59.5487265754" lon="31.2749295216"><ele>61.67</ele><time>2026-09-02T20:47:01Z</time></trkpt><trkpt lat="59.5488298405" lon="31.2749928888"><ele>60.17</ele><time>2026-09-02T20:47:16Z</time></trkpt><trkpt lat="59.5488891844" lon="31.2750196271"><ele>59.85</ele><time>2026-09-02T20:47:24Z</time></trkpt><trkpt lat="59.5489038527" lon="31.2750234827"><ele>60.80</ele><time>2026-09-02T20:47:26Z</time></trkpt><trkpt lat="59.5490130689" lon="31.2750544958"><ele>61.51</ele><time>2026-09-02T20:47:54Z</time></trkpt><trkpt lat="59.5491340198" lon="31.2750495505"><ele>60.35</ele><time>2026-09-02T20:48:15Z</time></trkpt><trkpt lat="59.5492109656" lon="31.2751312740"><ele>60.35</ele><time>2026-09-02T20:48:25Z</time></trkpt><trkpt lat="59.5492556412" lon="31.2751173601"><ele>61.49</ele><time>2026-09-02T20:48:38Z</time></trkpt><trkpt lat="59.5493675396" lon="31.2751166895"><ele>61.10</ele><time>2026-09-02T20:48:56Z</time></trkpt><trkpt lat="59.5494470838" lon="31.2751682382"><ele>61.03</ele><time>2026-09-02T20:49:17Z</time></trkpt><trkpt lat="59.5494747441" lon="31.2752355449"><ele>60.95</ele><time>2026-09-02T20:50:04Z</time></trkpt><trkpt lat="59.5494844671" lon="31.2752299290"><ele>60.70</ele><time>2026-09-02T20:50:26Z</time></trkpt><trkpt lat="59.5495456550" lon="31.2752319407"><ele>61.12</ele><time>2026-09-02T20:50:45Z</time></trkpt><trkpt lat="59.5496419631" lon="31.2751605269"><ele>59.71</ele><time>2026-09-02T20:51:11Z</time></trkpt><trkpt lat="59.5497737266" lon="31.2752288394"><ele>60.40</ele><time>2026-09-02T20:51:33Z</time></trkpt><trkpt lat="59.5499339886" lon="31.2752258219"><ele>60.68</ele><time>2026-09-02T20:51:54Z</time></trkpt><trkpt lat="59.5500536822" lon="31.2752054539"><ele>60.56</ele><time>2026-09-02T20:52:10Z</time></trkpt><trkpt lat="59.5501390100" lon="31.2752124947"><ele>61.24</ele><time>2026-09-02T20:52:27Z</time></trkpt><trkpt lat="59.5502680913" lon="31.2751563359"><ele>60.37</ele><time>2026-09-02T20:52:42Z</time></trkpt><trkpt lat="59.5503285248" lon="31.2751380634"><ele>61.26</ele><time>2026-09-02T20:52:55Z</time></trkpt><trkpt lat="59.5503589511" lon="31.2751369737"><ele>61.29</ele><time>2026-09-02T20:53:21Z</time></trkpt><trkpt lat="59.5503743738" lon="31.2751325313"><ele>61.36</ele><time>2026-09-02T20:54:03Z</time></trkpt><trkpt lat="59.5504160319" lon="31.2751274183"><ele>60.97</ele><time>2026-09-02T20:54:17Z</time></trkpt><trkpt lat="59.5505063888" lon="31.2751793861"><ele>61.10</ele><time>2026-09-02T20:54:32Z</time></trkpt><trkpt lat="59.5505894534" lon="31.2752590980"><ele>60.61</ele><time>2026-09-02T20:54:50Z</time></trkpt><trkpt lat="59.5506537426" lon="31.2753232196"><ele>62.04</ele><time>2026-09-02T20:55:10Z</time></trkpt><trkpt lat="59.5507695805" lon="31.2753848266"><ele>61.40</ele><time>2026-09-02T20:55:35Z</time></trkpt><trkpt lat="59.5508149266" lon="31.2754583359"><ele>60.42</ele><time>2026-09-02T20:55:48Z</time></trkpt><trkpt lat="59.5508865919" lon="31.2754607666"><ele>61.06</ele><time>2026-09-02T20:56:03Z</time></trkpt><trkpt lat="59.5509405714" lon="31.2754666340"><ele>60.16</ele><time>2026-09-02T20:56:24Z</time></trkpt><trkpt lat="59.5510071237" lon="31.2754130736"><ele>60.27</ele><time>2026-09-02T20:56:56Z</time></trkpt><trkpt lat="59.5510270726" lon="31.2754168455"><ele>56.54</ele><time>2026-09-02T20:56:59Z</time></trkpt><trkpt lat="59.5510326885" lon="31.2754114810"><ele>61.27</ele><time>2026-09-02T20:57:00Z</time></trkpt><trkpt lat="59.5510784537" lon="31.2753429171"><ele>58.09</ele><time>2026-09-02T20:57:16Z</time></trkpt><trkpt lat="59.5511206985" lon="31.2753950525"><ele>61.12</ele><time>2026-09-02T20:57:24Z</time></trkpt><trkpt lat="59.5511722472" lon="31.2754676398"><ele>59.40</ele><time>2026-09-02T20:57:42Z</time></trkpt><trkpt lat="59.5512148272" lon="31.2755075376"><ele>58.81</ele><time>2026-09-02T20:57:56Z</time></trkpt><trkpt lat="59.5512979757" lon="31.2755375449"><ele>60.00</ele><time>2026-09-02T20:58:17Z</time></trkpt><trkpt lat="59.5513315871" lon="31.2754732557"><ele>60.12</ele><time>2026-09-02T20:58:51Z</time></trkpt><trkpt lat="59.5513241272" lon="31.2755637802"><ele>60.04</ele><time>2026-09-02T20:59:28Z</time></trkpt><trkpt lat="59.5513421483" lon="31.2755304202"><ele>57.85</ele><time>2026-09-02T20:59:47Z</time></trkpt><trkpt lat="59.5513679646" lon="31.2755808793"><ele>59.13</ele><time>2026-09-02T21:00:01Z</time></trkpt><trkpt lat="59.5514345169" lon="31.2757115532"><ele>59.14</ele><time>2026-09-02T21:00:24Z</time></trkpt><trkpt lat="59.5514972974" lon="31.2757716514"><ele>58.47</ele><time>2026-09-02T21:00:44Z</time></trkpt><trkpt lat="59.5515499357" lon="31.2757569831"><ele>59.43</ele><time>2026-09-02T21:01:04Z</time></trkpt><trkpt lat="59.5515834633" lon="31.2756411452"><ele>59.66</ele><time>2026-09-02T21:01:21Z</time></trkpt><trkpt lat="59.5516863931" lon="31.2755879201"><ele>57.89</ele><time>2026-09-02T21:01:37Z</time></trkpt><trkpt lat="59.5516882371" lon="31.2755770236"><ele>62.24</ele><time>2026-09-02T21:01:40Z</time></trkpt><trkpt lat="59.5516909193" lon="31.2755700666"><ele>58.80</ele><time>2026-09-02T21:01:43Z</time></trkpt><trkpt lat="59.5517742354" lon="31.2755323481"><ele>56.96</ele><time>2026-09-02T21:02:12Z</time></trkpt><trkpt lat="59.5518114511" lon="31.2755258940"><ele>52.75</ele><time>2026-09-02T21:02:25Z</time></trkpt><trkpt lat="59.5518160611" lon="31.2755198590"><ele>61.11</ele><time>2026-09-02T21:02:26Z</time></trkpt><trkpt lat="59.5518471580" lon="31.2755359523"><ele>57.64</ele><time>2026-09-02T21:02:31Z</time></trkpt><trkpt lat="59.5518639218" lon="31.2755461782"><ele>58.75</ele><time>2026-09-02T21:02:36Z</time></trkpt><trkpt lat="59.5518858824" lon="31.2755328510"><ele>57.09</ele><time>2026-09-02T21:02:44Z</time></trkpt><trkpt lat="59.5518868882" lon="31.2755329348"><ele>58.97</ele><time>2026-09-02T21:02:46Z</time></trkpt><trkpt lat="59.5519447234" lon="31.2755704857"><ele>56.71</ele><time>2026-09-02T21:03:05Z</time></trkpt><trkpt lat="59.5519503392" lon="31.2755887583"><ele>50.74</ele><time>2026-09-02T21:03:08Z</time></trkpt><trkpt lat="59.5519568771" lon="31.2756034266"><ele>63.43</ele><time>2026-09-02T21:03:09Z</time></trkpt><trkpt lat="59.5519574638" lon="31.2756103836"><ele>62.46</ele><time>2026-09-02T21:03:10Z</time></trkpt><trkpt lat="59.5519610681" lon="31.2756031752"><ele>59.10</ele><time>2026-09-02T21:03:12Z</time></trkpt><trkpt lat="59.5519648399" lon="31.2755935360"><ele>58.86</ele><time>2026-09-02T21:03:13Z</time></trkpt><trkpt lat="59.5519755688" lon="31.2755708210"><ele>57.62</ele><time>2026-09-02T21:03:17Z</time></trkpt><trkpt lat="59.5519760717" lon="31.2755738385"><ele>58.95</ele><time>2026-09-02T21:03:19Z</time></trkpt><trkpt lat="59.5519947633" lon="31.2756741699"><ele>56.27</ele><time>2026-09-02T21:03:34Z</time></trkpt><trkpt lat="59.5519953500" lon="31.2756724935"><ele>56.24</ele><time>2026-09-02T21:03:35Z</time></trkpt><trkpt lat="59.5519965235" lon="31.2756720744"><ele>60.80</ele><time>2026-09-02T21:03:37Z</time></trkpt><trkpt lat="59.5519966912" lon="31.2756771874"><ele>59.85</ele><time>2026-09-02T21:03:38Z</time></trkpt><trkpt lat="59.5519964397" lon="31.2756889220"><ele>58.71</ele><time>2026-09-02T21:03:40Z</time></trkpt><trkpt lat="59.5520324819" lon="31.2757683825"><ele>58.33</ele><time>2026-09-02T21:04:01Z</time></trkpt><trkpt lat="59.5520773251" lon="31.2758191768"><ele>58.60</ele><time>2026-09-02T21:04:23Z</time></trkpt><trkpt lat="59.5520946756" lon="31.2758805323"><ele>58.58</ele><time>2026-09-02T21:04:49Z</time></trkpt><trkpt lat="59.5521337353" lon="31.2759544607"><ele>59.22</ele><time>2026-09-02T21:05:02Z</time></trkpt><trkpt lat="59.5521706995" lon="31.2759847194"><ele>57.98</ele><time>2026-09-02T21:05:19Z</time></trkpt><trkpt lat="59.5521664247" lon="31.2760030758"><ele>56.73</ele><time>2026-09-02T21:05:25Z</time></trkpt><trkpt lat="59.5521965995" lon="31.2760035787"><ele>57.41</ele><time>2026-09-02T21:05:50Z</time></trkpt><trkpt lat="59.5522088371" lon="31.2759853899"><ele>57.96</ele><time>2026-09-02T21:06:24Z</time></trkpt><trkpt lat="59.5522352401" lon="31.2759766728"><ele>58.11</ele><time>2026-09-02T21:07:22Z</time></trkpt><trkpt lat="59.5522658341" lon="31.2760120444"><ele>58.09</ele><time>2026-09-02T21:07:53Z</time></trkpt><trkpt lat="59.5522545185" lon="31.2760422193"><ele>57.95</ele><time>2026-09-02T21:08:26Z</time></trkpt><trkpt lat="59.5522540994" lon="31.2760373577"><ele>58.64</ele><time>2026-09-02T21:08:28Z</time></trkpt><trkpt lat="59.5522974338" lon="31.2760382798"><ele>57.14</ele><time>2026-09-02T21:08:55Z</time></trkpt><trkpt lat="59.5523870364" lon="31.2760515232"><ele>58.36</ele><time>2026-09-02T21:09:24Z</time></trkpt><trkpt lat="59.5524622221" lon="31.2760007288"><ele>58.03</ele><time>2026-09-02T21:09:37Z</time></trkpt><trkpt lat="59.5525022876" lon="31.2758602481"><ele>58.40</ele><time>2026-09-02T21:09:58Z</time></trkpt><trkpt lat="59.5525502320" lon="31.2758125551"><ele>58.73</ele><time>2026-09-02T21:10:20Z</time></trkpt><trkpt lat="59.5525723603" lon="31.2756864913"><ele>58.07</ele><time>2026-09-02T21:10:40Z</time></trkpt><trkpt lat="59.5526235737" lon="31.2756887544"><ele>58.84</ele><time>2026-09-02T21:11:04Z</time></trkpt><trkpt lat="59.5527077280" lon="31.2757647783"><ele>59.37</ele><time>2026-09-02T21:11:22Z</time></trkpt><trkpt lat="59.5528137591" lon="31.2758318335"><ele>58.07</ele><time>2026-09-02T21:11:41Z</time></trkpt><trkpt lat="59.5529156830" lon="31.2758040894"><ele>57.67</ele><time>2026-09-02T21:11:56Z</time></trkpt><trkpt lat="59.5530680660" lon="31.2757332623"><ele>57.46</ele><time>2026-09-02T21:12:18Z</time></trkpt><trkpt lat="59.5530966483" lon="31.2757926900"><ele>51.80</ele><time>2026-09-02T21:12:27Z</time></trkpt><trkpt lat="59.5530973189" lon="31.2757926900"><ele>52.95</ele><time>2026-09-02T21:12:28Z</time></trkpt><trkpt lat="59.5530980732" lon="31.2757926900"><ele>58.09</ele><time>2026-09-02T21:12:29Z</time></trkpt><trkpt lat="59.5530985761" lon="31.2757923547"><ele>57.27</ele><time>2026-09-02T21:12:30Z</time></trkpt><trkpt lat="59.5530886855" lon="31.2757134810"><ele>57.42</ele><time>2026-09-02T21:13:01Z</time></trkpt><trkpt lat="59.5530988276" lon="31.2757185940"><ele>57.25</ele><time>2026-09-02T21:13:24Z</time></trkpt><trkpt lat="59.5531032700" lon="31.2757204380"><ele>57.49</ele><time>2026-09-02T21:13:31Z</time></trkpt><trkpt lat="59.5531058684" lon="31.2757039256"><ele>57.19</ele><time>2026-09-02T21:14:03Z</time></trkpt><trkpt lat="59.5531484485" lon="31.2757618446"><ele>57.40</ele><time>2026-09-02T21:14:24Z</time></trkpt><trkpt lat="59.5531904418" lon="31.2758069392"><ele>57.64</ele><time>2026-09-02T21:14:43Z</time></trkpt><trkpt lat="59.5532212872" lon="31.2758130580"><ele>54.31</ele><time>2026-09-02T21:14:52Z</time></trkpt><trkpt lat="59.5532233827" lon="31.2758094538"><ele>57.57</ele><time>2026-09-02T21:14:53Z</time></trkpt><trkpt lat="59.5532960538" lon="31.2757988926"><ele>55.63</ele><time>2026-09-02T21:15:09Z</time></trkpt><trkpt lat="59.5533539727" lon="31.2757953722"><ele>57.56</ele><time>2026-09-02T21:15:33Z</time></trkpt><trkpt lat="59.5534254704" lon="31.2757322565"><ele>56.79</ele><time>2026-09-02T21:15:55Z</time></trkpt><trkpt lat="59.5534401387" lon="31.2756895926"><ele>58.04</ele><time>2026-09-02T21:16:08Z</time></trkpt><trkpt lat="59.5534813777" lon="31.2756427377"><ele>55.53</ele><time>2026-09-02T21:16:32Z</time></trkpt><trkpt lat="59.5535161626" lon="31.2755269837"><ele>57.82</ele><time>2026-09-02T21:16:48Z</time></trkpt><trkpt lat="59.5535416435" lon="31.2753940467"><ele>58.07</ele><time>2026-09-02T21:17:14Z</time></trkpt><trkpt lat="59.5536543801" lon="31.2754852418"><ele>57.01</ele><time>2026-09-02T21:17:33Z</time></trkpt><trkpt lat="59.5536706410" lon="31.2755750958"><ele>55.92</ele><time>2026-09-02T21:17:55Z</time></trkpt><trkpt lat="59.5536604989" lon="31.2757034227"><ele>59.00</ele><time>2026-09-02T21:18:14Z</time></trkpt><trkpt lat="59.5536768436" lon="31.2758169975"><ele>57.07</ele><time>2026-09-02T21:18:29Z</time></trkpt><trkpt lat="59.5536896680" lon="31.2759297341"><ele>56.81</ele><time>2026-09-02T21:18:44Z</time></trkpt><trkpt lat="59.5536855608" lon="31.2760384474"><ele>57.77</ele><time>2026-09-02T21:18:59Z</time></trkpt><trkpt lat="59.5536765922" lon="31.2762229331"><ele>58.78</ele><time>2026-09-02T21:19:22Z</time></trkpt><trkpt lat="59.5537042525" lon="31.2763865478"><ele>58.26</ele><time>2026-09-02T21:19:36Z</time></trkpt><trkpt lat="59.5537207648" lon="31.2764597218"><ele>58.00</ele><time>2026-09-02T21:19:44Z</time></trkpt><trkpt lat="59.5537831262" lon="31.2765048165"><ele>57.68</ele><time>2026-09-02T21:19:59Z</time></trkpt><trkpt lat="59.5538222697" lon="31.2764327321"><ele>54.62</ele><time>2026-09-02T21:20:15Z</time></trkpt><trkpt lat="59.5538255386" lon="31.2764265295"><ele>58.71</ele><time>2026-09-02T21:20:16Z</time></trkpt><trkpt lat="59.5538270473" lon="31.2764258590"><ele>58.91</ele><time>2026-09-02T21:20:17Z</time></trkpt><trkpt lat="59.5538320765" lon="31.2764186505"><ele>54.14</ele><time>2026-09-02T21:20:21Z</time></trkpt><trkpt lat="59.5538376085" lon="31.2764111906"><ele>59.33</ele><time>2026-09-02T21:20:22Z</time></trkpt><trkpt lat="59.5539025683" lon="31.2763511762"><ele>57.89</ele><time>2026-09-02T21:20:37Z</time></trkpt><trkpt lat="59.5539675280" lon="31.2762257829"><ele>56.81</ele><time>2026-09-02T21:20:50Z</time></trkpt><trkpt lat="59.5540077612" lon="31.2760640960"><ele>57.91</ele><time>2026-09-02T21:21:08Z</time></trkpt><trkpt lat="59.5540103596" lon="31.2760840449"><ele>58.18</ele><time>2026-09-02T21:21:49Z</time></trkpt><trkpt lat="59.5540710445" lon="31.2761091907"><ele>57.88</ele><time>2026-09-02T21:22:23Z</time></trkpt><trkpt lat="59.5540690329" lon="31.2761450652"><ele>58.10</ele><time>2026-09-02T21:22:49Z</time></trkpt><trkpt lat="59.5540640876" lon="31.2761950213"><ele>57.68</ele><time>2026-09-02T21:23:19Z</time></trkpt><trkpt lat="59.5540474914" lon="31.2762062531"><ele>56.92</ele><time>2026-09-02T21:23:32Z</time></trkpt><trkpt lat="59.5540688653" lon="31.2762653455"><ele>58.04</ele><time>2026-09-02T21:23:43Z</time></trkpt><trkpt lat="59.5541035663" lon="31.2763810996"><ele>57.32</ele><time>2026-09-02T21:24:01Z</time></trkpt><trkpt lat="59.5541402791" lon="31.2765142880"><ele>57.96</ele><time>2026-09-02T21:24:18Z</time></trkpt><trkpt lat="59.5541961864" lon="31.2765558623"><ele>57.82</ele><time>2026-09-02T21:24:32Z</time></trkpt><trkpt lat="59.5542244334" lon="31.2766149547"><ele>57.42</ele><time>2026-09-02T21:24:47Z</time></trkpt><trkpt lat="59.5542063285" lon="31.2767260987"><ele>57.36</ele><time>2026-09-02T21:25:01Z</time></trkpt><trkpt lat="59.5541559532" lon="31.2768075708"><ele>58.22</ele><time>2026-09-02T21:25:18Z</time></trkpt><trkpt lat="59.5541459788" lon="31.2768925633"><ele>57.02</ele><time>2026-09-02T21:25:45Z</time></trkpt><trkpt lat="59.5540849585" lon="31.2769451179"><ele>58.04</ele><time>2026-09-02T21:26:07Z</time></trkpt><trkpt lat="59.5540461503" lon="31.2770670746"><ele>56.95</ele><time>2026-09-02T21:26:32Z</time></trkpt><trkpt lat="59.5540210884" lon="31.2770984229"><ele>57.14</ele><time>2026-09-02T21:26:41Z</time></trkpt><trkpt lat="59.5540345833" lon="31.2773713376"><ele>58.40</ele><time>2026-09-02T21:27:13Z</time></trkpt><trkpt lat="59.5540710445" lon="31.2775114831"><ele>57.15</ele><time>2026-09-02T21:27:29Z</time></trkpt><trkpt lat="59.5540644228" lon="31.2775254808"><ele>58.58</ele><time>2026-09-02T21:27:31Z</time></trkpt><trkpt lat="59.5540658478" lon="31.2776804622"><ele>56.71</ele><time>2026-09-02T21:27:47Z</time></trkpt><trkpt lat="59.5540996268" lon="31.2778005749"><ele>58.05</ele><time>2026-09-02T21:28:03Z</time></trkpt><trkpt lat="59.5541776624" lon="31.2778313365"><ele>58.47</ele><time>2026-09-02T21:28:19Z</time></trkpt><trkpt lat="59.5542622358" lon="31.2778054364"><ele>57.28</ele><time>2026-09-02T21:28:38Z</time></trkpt><trkpt lat="59.5542841963" lon="31.2777480204"><ele>57.11</ele><time>2026-09-02T21:28:56Z</time></trkpt><trkpt lat="59.5542874653" lon="31.2777145766"><ele>57.22</ele><time>2026-09-02T21:29:20Z</time></trkpt><trkpt lat="59.5542870462" lon="31.2777442485"><ele>57.23</ele><time>2026-09-02T21:29:55Z</time></trkpt><trkpt lat="59.5542835258" lon="31.2778805383"><ele>56.86</ele><time>2026-09-02T21:30:23Z</time></trkpt><trkpt lat="59.5542951766" lon="31.2780081946"><ele>56.75</ele><time>2026-09-02T21:30:35Z</time></trkpt><trkpt lat="59.5542932488" lon="31.2781485915"><ele>56.60</ele><time>2026-09-02T21:30:49Z</time></trkpt><trkpt lat="59.5543503296" lon="31.2781853881"><ele>57.87</ele><time>2026-09-02T21:31:09Z</time></trkpt><trkpt lat="59.5543856174" lon="31.2782507669"><ele>57.62</ele><time>2026-09-02T21:31:27Z</time></trkpt><trkpt lat="59.5544199832" lon="31.2783233542"><ele>56.42</ele><time>2026-09-02T21:31:45Z</time></trkpt><trkpt lat="59.5544192288" lon="31.2784194946"><ele>56.56</ele><time>2026-09-02T21:32:04Z</time></trkpt><trkpt lat="59.5544429496" lon="31.2786171399"><ele>56.58</ele><time>2026-09-02T21:32:20Z</time></trkpt><trkpt lat="59.5544872899" lon="31.2787735462"><ele>56.50</ele><time>2026-09-02T21:32:35Z</time></trkpt><trkpt lat="59.5545083284" lon="31.2788518332"><ele>56.68</ele><time>2026-09-02T21:32:45Z</time></trkpt><trkpt lat="59.5544843562" lon="31.2789747957"><ele>57.47</ele><time>2026-09-02T21:33:10Z</time></trkpt><trkpt lat="59.5544906426" lon="31.2791376561"><ele>57.87</ele><time>2026-09-02T21:33:26Z</time></trkpt><trkpt lat="59.5545236673" lon="31.2792614568"><ele>56.72</ele><time>2026-09-02T21:33:44Z</time></trkpt><trkpt lat="59.5545623917" lon="31.2794637959"><ele>56.51</ele><time>2026-09-02T21:33:59Z</time></trkpt><trkpt lat="59.5545286965" lon="31.2795696594"><ele>57.08</ele><time>2026-09-02T21:34:16Z</time></trkpt><trkpt lat="59.5545821730" lon="31.2795743532"><ele>56.87</ele><time>2026-09-02T21:34:50Z</time></trkpt><trkpt lat="59.5544846915" lon="31.2795369700"><ele>56.65</ele><time>2026-09-02T21:35:53Z</time></trkpt><trkpt lat="59.5544780698" lon="31.2795388978"><ele>56.51</ele><time>2026-09-02T21:36:27Z</time></trkpt><trkpt lat="59.5544872899" lon="31.2795225531"><ele>56.39</ele><time>2026-09-02T21:36:46Z</time></trkpt><trkpt lat="59.5544454642" lon="31.2794950604"><ele>57.14</ele><time>2026-09-02T21:37:06Z</time></trkpt><trkpt lat="59.5543956757" lon="31.2794859242"><ele>56.60</ele><time>2026-09-02T21:37:26Z</time></trkpt><trkpt lat="59.5543554425" lon="31.2794389855"><ele>56.52</ele><time>2026-09-02T21:37:41Z</time></trkpt><trkpt lat="59.5542868786" lon="31.2794672325"><ele>55.92</ele><time>2026-09-02T21:37:59Z</time></trkpt><trkpt lat="59.5541903190" lon="31.2794194557"><ele>57.29</ele><time>2026-09-02T21:38:15Z</time></trkpt><trkpt lat="59.5541178994" lon="31.2794226408"><ele>53.85</ele><time>2026-09-02T21:38:34Z</time></trkpt><trkpt lat="59.5541168936" lon="31.2794228923"><ele>57.15</ele><time>2026-09-02T21:38:36Z</time></trkpt><trkpt lat="59.5539816935" lon="31.2792561762"><ele>56.89</ele><time>2026-09-02T21:39:01Z</time></trkpt><trkpt lat="59.5539355930" lon="31.2792493030"><ele>53.52</ele><time>2026-09-02T21:39:13Z</time></trkpt><trkpt lat="59.5539294742" lon="31.2792474590"><ele>55.15</ele><time>2026-09-02T21:39:14Z</time></trkpt><trkpt lat="59.5539278816" lon="31.2792502251"><ele>58.95</ele><time>2026-09-02T21:39:16Z</time></trkpt><trkpt lat="59.5539303962" lon="31.2792348862"><ele>55.42</ele><time>2026-09-02T21:39:18Z</time></trkpt><trkpt lat="59.5539717190" lon="31.2790439464"><ele>55.44</ele><time>2026-09-02T21:39:45Z</time></trkpt><trkpt lat="59.5539021492" lon="31.2789650727"><ele>55.20</ele><time>2026-09-02T21:40:03Z</time></trkpt><trkpt lat="59.5538108703" lon="31.2789113447"><ele>57.03</ele><time>2026-09-02T21:40:16Z</time></trkpt><trkpt lat="59.5537618361" lon="31.2787722889"><ele>55.99</ele><time>2026-09-02T21:40:39Z</time></trkpt><trkpt lat="59.5537507720" lon="31.2786512543"><ele>56.25</ele><time>2026-09-02T21:40:54Z</time></trkpt><trkpt lat="59.5536873210" lon="31.2786273658"><ele>56.85</ele><time>2026-09-02T21:41:15Z</time></trkpt><trkpt lat="59.5536037534" lon="31.2786754780"><ele>56.32</ele><time>2026-09-02T21:41:41Z</time></trkpt><trkpt lat="59.5535530429" lon="31.2787080836"><ele>56.60</ele><time>2026-09-02T21:42:06Z</time></trkpt><trkpt lat="59.5535602514" lon="31.2787618954"><ele>56.43</ele><time>2026-09-02T21:42:24Z</time></trkpt><trkpt lat="59.5535594970" lon="31.2788090855"><ele>56.62</ele><time>2026-09-02T21:42:45Z</time></trkpt><trkpt lat="59.5535226166" lon="31.2787647452"><ele>56.28</ele><time>2026-09-02T21:43:18Z</time></trkpt><trkpt lat="59.5534608420" lon="31.2788050622"><ele>55.45</ele><time>2026-09-02T21:43:38Z</time></trkpt><trkpt lat="59.5533821359" lon="31.2787913997"><ele>55.98</ele><time>2026-09-02T21:43:57Z</time></trkpt><trkpt lat="59.5533122309" lon="31.2787936628"><ele>55.68</ele><time>2026-09-02T21:44:10Z</time></trkpt><trkpt lat="59.5532601792" lon="31.2787902262"><ele>55.74</ele><time>2026-09-02T21:44:38Z</time></trkpt><trkpt lat="59.5532393921" lon="31.2788117677"><ele>55.63</ele><time>2026-09-02T21:45:01Z</time></trkpt><trkpt lat="59.5531863347" lon="31.2788819242"><ele>55.48</ele><time>2026-09-02T21:45:23Z</time></trkpt><trkpt lat="59.5531096403" lon="31.2788695190"><ele>56.77</ele><time>2026-09-02T21:45:37Z</time></trkpt><trkpt lat="59.5530697424" lon="31.2789093331"><ele>56.45</ele><time>2026-09-02T21:45:58Z</time></trkpt><trkpt lat="59.5529924612" lon="31.2788921501"><ele>55.52</ele><time>2026-09-02T21:46:17Z</time></trkpt><trkpt lat="59.5529235620" lon="31.2789458781"><ele>55.77</ele><time>2026-09-02T21:46:45Z</time></trkpt><trkpt lat="59.5528426766" lon="31.2788734585"><ele>52.72</ele><time>2026-09-02T21:47:00Z</time></trkpt><trkpt lat="59.5528449398" lon="31.2788645737"><ele>57.11</ele><time>2026-09-02T21:47:01Z</time></trkpt><trkpt lat="59.5527794771" lon="31.2787594646"><ele>52.93</ele><time>2026-09-02T21:47:23Z</time></trkpt><trkpt lat="59.5527795609" lon="31.2787478976"><ele>56.99</ele><time>2026-09-02T21:47:24Z</time></trkpt><trkpt lat="59.5527817402" lon="31.2787126936"><ele>53.74</ele><time>2026-09-02T21:47:31Z</time></trkpt><trkpt lat="59.5527320355" lon="31.2786314730"><ele>56.04</ele><time>2026-09-02T21:47:45Z</time></trkpt><trkpt lat="59.5527016930" lon="31.2786026392"><ele>53.01</ele><time>2026-09-02T21:47:50Z</time></trkpt><trkpt lat="59.5526962448" lon="31.2785982806"><ele>56.39</ele><time>2026-09-02T21:47:51Z</time></trkpt><trkpt lat="59.5526674949" lon="31.2784701213"><ele>56.02</ele><time>2026-09-02T21:48:07Z</time></trkpt><trkpt lat="59.5526012778" lon="31.2784180697"><ele>52.96</ele><time>2026-09-02T21:48:20Z</time></trkpt><trkpt lat="59.5525949914" lon="31.2783974502"><ele>56.55</ele><time>2026-09-02T21:48:22Z</time></trkpt><trkpt lat="59.5525940694" lon="31.2783941813"><ele>55.70</ele><time>2026-09-02T21:48:23Z</time></trkpt><trkpt lat="59.5525825862" lon="31.2783270422"><ele>54.98</ele><time>2026-09-02T21:48:45Z</time></trkpt><trkpt lat="59.5525379945" lon="31.2782487553"><ele>55.76</ele><time>2026-09-02T21:48:58Z</time></trkpt><trkpt lat="59.5525122620" lon="31.2782753259"><ele>55.47</ele><time>2026-09-02T21:49:29Z</time></trkpt><trkpt lat="59.5524880383" lon="31.2782363500"><ele>54.72</ele><time>2026-09-02T21:49:57Z</time></trkpt><trkpt lat="59.5524563547" lon="31.2782456540"><ele>55.45</ele><time>2026-09-02T21:50:16Z</time></trkpt><trkpt lat="59.5524406806" lon="31.2782389484"><ele>54.22</ele><time>2026-09-02T21:50:29Z</time></trkpt><trkpt lat="59.5523707755" lon="31.2781746592"><ele>54.91</ele><time>2026-09-02T21:50:46Z</time></trkpt><trkpt lat="59.5523469709" lon="31.2782519404"><ele>55.27</ele><time>2026-09-02T21:51:01Z</time></trkpt><trkpt lat="59.5523304585" lon="31.2783310656"><ele>54.73</ele><time>2026-09-02T21:51:17Z</time></trkpt><trkpt lat="59.5522645768" lon="31.2784297206"><ele>55.25</ele><time>2026-09-02T21:51:31Z</time></trkpt><trkpt lat="59.5521780755" lon="31.2785169762"><ele>54.59</ele><time>2026-09-02T21:51:58Z</time></trkpt><trkpt lat="59.5520817675" lon="31.2785094324"><ele>55.87</ele><time>2026-09-02T21:52:13Z</time></trkpt><trkpt lat="59.5520767383" lon="31.2785089295"><ele>52.73</ele><time>2026-09-02T21:52:15Z</time></trkpt><trkpt lat="59.5520294644" lon="31.2785119470"><ele>55.04</ele><time>2026-09-02T21:52:30Z</time></trkpt><trkpt lat="59.5519344974" lon="31.2784368452"><ele>55.02</ele><time>2026-09-02T21:52:52Z</time></trkpt><trkpt lat="59.5519112796" lon="31.2784241885"><ele>44.67</ele><time>2026-09-02T21:52:55Z</time></trkpt><trkpt lat="59.5519080944" lon="31.2784192432"><ele>62.82</ele><time>2026-09-02T21:52:56Z</time></trkpt><trkpt lat="59.5519050770" lon="31.2784112804"><ele>57.78</ele><time>2026-09-02T21:52:57Z</time></trkpt><trkpt lat="59.5518961921" lon="31.2783964444"><ele>54.07</ele><time>2026-09-02T21:52:59Z</time></trkpt><trkpt lat="59.5518242754" lon="31.2784185726"><ele>54.20</ele><time>2026-09-02T21:53:15Z</time></trkpt><trkpt lat="59.5517990459" lon="31.2783842906"><ele>55.19</ele><time>2026-09-02T21:53:30Z</time></trkpt><trkpt lat="59.5517865568" lon="31.2783858832"><ele>53.46</ele><time>2026-09-02T21:53:32Z</time></trkpt><trkpt lat="59.5517858863" lon="31.2783857994"><ele>56.86</ele><time>2026-09-02T21:53:33Z</time></trkpt><trkpt lat="59.5517846290" lon="31.2783858832"><ele>55.15</ele><time>2026-09-02T21:53:34Z</time></trkpt><trkpt lat="59.5517516881" lon="31.2783749867"><ele>54.73</ele><time>2026-09-02T21:53:52Z</time></trkpt><trkpt lat="59.5517273806" lon="31.2783622462"><ele>55.24</ele><time>2026-09-02T21:54:07Z</time></trkpt><trkpt lat="59.5516786817" lon="31.2783155590"><ele>54.81</ele><time>2026-09-02T21:54:28Z</time></trkpt><trkpt lat="59.5516513567" lon="31.2782838754"><ele>54.63</ele><time>2026-09-02T21:55:03Z</time></trkpt><trkpt lat="59.5516416337" lon="31.2782714702"><ele>54.43</ele><time>2026-09-02T21:55:19Z</time></trkpt><trkpt lat="59.5516695455" lon="31.2782627530"><ele>55.15</ele><time>2026-09-02T21:55:43Z</time></trkpt><trkpt lat="59.5516277198" lon="31.2782885693"><ele>55.01</ele><time>2026-09-02T21:56:03Z</time></trkpt><trkpt lat="59.5515562221" lon="31.2783051655"><ele>54.87</ele><time>2026-09-02T21:56:20Z</time></trkpt><trkpt lat="59.5515082777" lon="31.2783311494"><ele>54.21</ele><time>2026-09-02T21:56:36Z</time></trkpt><trkpt lat="59.5514420606" lon="31.2783734780"><ele>54.33</ele><time>2026-09-02T21:56:49Z</time></trkpt><trkpt lat="59.5513229538" lon="31.2783588935"><ele>56.06</ele><time>2026-09-02T21:57:02Z</time></trkpt><trkpt lat="59.5512650348" lon="31.2783561274"><ele>55.75</ele><time>2026-09-02T21:57:22Z</time></trkpt><trkpt lat="59.5512901805" lon="31.2783286348"><ele>55.15</ele><time>2026-09-02T21:57:40Z</time></trkpt><trkpt lat="59.5512670465" lon="31.2783086859"><ele>55.18</ele><time>2026-09-02T21:58:06Z</time></trkpt><trkpt lat="59.5512772724" lon="31.2783984561"><ele>55.15</ele><time>2026-09-02T21:58:47Z</time></trkpt><trkpt lat="59.5512816310" lon="31.2783616595"><ele>55.18</ele><time>2026-09-02T21:59:16Z</time></trkpt><trkpt lat="59.5512427390" lon="31.2784601469"><ele>54.89</ele><time>2026-09-02T21:59:32Z</time></trkpt><trkpt lat="59.5511556510" lon="31.2785563711"><ele>55.69</ele><time>2026-09-02T21:59:48Z</time></trkpt><trkpt lat="59.5510930382" lon="31.2786581274"><ele>56.00</ele><time>2026-09-02T22:00:05Z</time></trkpt><trkpt lat="59.5510390587" lon="31.2787891366"><ele>55.85</ele><time>2026-09-02T22:00:24Z</time></trkpt><trkpt lat="59.5509947184" lon="31.2789398432"><ele>55.21</ele><time>2026-09-02T22:00:47Z</time></trkpt><trkpt lat="59.5509761944" lon="31.2790054735"><ele>56.82</ele><time>2026-09-02T22:01:21Z</time></trkpt><trkpt lat="59.5509643760" lon="31.2789475545"><ele>55.21</ele><time>2026-09-02T22:01:41Z</time></trkpt><trkpt lat="59.5509560779" lon="31.2790141907"><ele>54.23</ele><time>2026-09-02T22:02:21Z</time></trkpt><trkpt lat="59.5509370510" lon="31.2790659908"><ele>55.11</ele><time>2026-09-02T22:02:37Z</time></trkpt><trkpt lat="59.5509642083" lon="31.2792032864"><ele>54.65</ele><time>2026-09-02T22:03:01Z</time></trkpt><trkpt lat="59.5509255677" lon="31.2794797216"><ele>54.94</ele><time>2026-09-02T22:03:16Z</time></trkpt><trkpt lat="59.5508637931" lon="31.2796897721"><ele>55.54</ele><time>2026-09-02T22:03:34Z</time></trkpt><trkpt lat="59.5508626197" lon="31.2797844876"><ele>54.87</ele><time>2026-09-02T22:03:51Z</time></trkpt><trkpt lat="59.5508984942" lon="31.2800441589"><ele>54.69</ele><time>2026-09-02T22:04:21Z</time></trkpt><trkpt lat="59.5509082172" lon="31.2801071908"><ele>54.44</ele><time>2026-09-02T22:04:32Z</time></trkpt><trkpt lat="59.5509148389" lon="31.2801553868"><ele>54.35</ele><time>2026-09-02T22:04:46Z</time></trkpt><trkpt lat="59.5510642882" lon="31.2803084403"><ele>54.17</ele><time>2026-09-02T22:05:14Z</time></trkpt><trkpt lat="59.5510915294" lon="31.2802561373"><ele>53.80</ele><time>2026-09-02T22:05:37Z</time></trkpt><trkpt lat="59.5511033479" lon="31.2803500984"><ele>53.88</ele><time>2026-09-02T22:06:22Z</time></trkpt><trkpt lat="59.5510750171" lon="31.2803747412"><ele>53.83</ele><time>2026-09-02T22:06:46Z</time></trkpt><trkpt lat="59.5510614384" lon="31.2804306485"><ele>53.93</ele><time>2026-09-02T22:07:30Z</time></trkpt><trkpt lat="59.5510282461" lon="31.2804560456"><ele>53.79</ele><time>2026-09-02T22:07:58Z</time></trkpt><trkpt lat="59.5509122405" lon="31.2804148905"><ele>55.23</ele><time>2026-09-02T22:08:23Z</time></trkpt><trkpt lat="59.5508508850" lon="31.2804629188"><ele>53.98</ele><time>2026-09-02T22:08:39Z</time></trkpt><trkpt lat="59.5508223865" lon="31.2803887390"><ele>54.76</ele><time>2026-09-02T22:08:58Z</time></trkpt><trkpt lat="59.5508140884" lon="31.2805555388"><ele>54.75</ele><time>2026-09-02T22:09:25Z</time></trkpt><trkpt lat="59.5508366358" lon="31.2806204986"><ele>54.80</ele><time>2026-09-02T22:09:48Z</time></trkpt><trkpt lat="59.5507729333" lon="31.2805438880"><ele>55.00</ele><time>2026-09-02T22:10:15Z</time></trkpt><trkpt lat="59.5506757870" lon="31.2805328239"><ele>54.73</ele><time>2026-09-02T22:10:32Z</time></trkpt><trkpt lat="59.5506027807" lon="31.2805021461"><ele>54.43</ele><time>2026-09-02T22:10:48Z</time></trkpt><trkpt lat="59.5504488889" lon="31.2804946862"><ele>55.06</ele><time>2026-09-02T22:11:10Z</time></trkpt><trkpt lat="59.5503641479" lon="31.2804374378"><ele>54.85</ele><time>2026-09-02T22:11:26Z</time></trkpt><trkpt lat="59.5502786525" lon="31.2803262938"><ele>54.94</ele><time>2026-09-02T22:11:57Z</time></trkpt><trkpt lat="59.5502705220" lon="31.2803219352"><ele>54.91</ele><time>2026-09-02T22:12:30Z</time></trkpt><trkpt lat="59.5503198914" lon="31.2802172452"><ele>55.77</ele><time>2026-09-02T22:12:42Z</time></trkpt><trkpt lat="59.5503755473" lon="31.2801627629"><ele>55.90</ele><time>2026-09-02T22:12:56Z</time></trkpt><trkpt lat="59.5505035389" lon="31.2800495233"><ele>56.02</ele><time>2026-09-02T22:13:18Z</time></trkpt><trkpt lat="59.5506082289" lon="31.2799053546"><ele>55.59</ele><time>2026-09-02T22:13:49Z</time></trkpt><trkpt lat="59.5507178642" lon="31.2797580846"><ele>55.13</ele><time>2026-09-02T22:14:07Z</time></trkpt><trkpt lat="59.5508287568" lon="31.2796341162"><ele>55.07</ele><time>2026-09-02T22:14:22Z</time></trkpt><trkpt lat="59.5508518908" lon="31.2793117482"><ele>54.49</ele><time>2026-09-02T22:14:43Z</time></trkpt><trkpt lat="59.5508625358" lon="31.2791309506"><ele>53.78</ele><time>2026-09-02T22:15:19Z</time></trkpt><trkpt lat="59.5509572513" lon="31.2789554335"><ele>55.04</ele><time>2026-09-02T22:15:34Z</time></trkpt><trkpt lat="59.5510274917" lon="31.2788838521"><ele>54.57</ele><time>2026-09-02T22:15:52Z</time></trkpt><trkpt lat="59.5511429943" lon="31.2788597960"><ele>54.21</ele><time>2026-09-02T22:16:09Z</time></trkpt><trkpt lat="59.5512585808" lon="31.2788864505"><ele>54.80</ele><time>2026-09-02T22:16:23Z</time></trkpt><trkpt lat="59.5513518713" lon="31.2788541801"><ele>53.34</ele><time>2026-09-02T22:16:37Z</time></trkpt><trkpt lat="59.5514339302" lon="31.2789008673"><ele>54.06</ele><time>2026-09-02T22:17:02Z</time></trkpt><trkpt lat="59.5515036676" lon="31.2787775695"><ele>53.65</ele><time>2026-09-02T22:17:35Z</time></trkpt><trkpt lat="59.5515502710" lon="31.2786566187"><ele>53.85</ele><time>2026-09-02T22:17:53Z</time></trkpt><trkpt lat="59.5516688749" lon="31.2785603944"><ele>52.72</ele><time>2026-09-02T22:18:08Z</time></trkpt><trkpt lat="59.5517002232" lon="31.2784941774"><ele>53.77</ele><time>2026-09-02T22:18:29Z</time></trkpt><trkpt lat="59.5517069288" lon="31.2784606498"><ele>63.83</ele><time>2026-09-02T22:18:35Z</time></trkpt><trkpt lat="59.5517109521" lon="31.2784509268"><ele>56.63</ele><time>2026-09-02T22:18:36Z</time></trkpt><trkpt lat="59.5517169870" lon="31.2784315646"><ele>51.17</ele><time>2026-09-02T22:18:38Z</time></trkpt><trkpt lat="59.5517180767" lon="31.2784285471"><ele>54.17</ele><time>2026-09-02T22:18:39Z</time></trkpt><trkpt lat="59.5516937692" lon="31.2783229351"><ele>53.58</ele><time>2026-09-02T22:19:08Z</time></trkpt><trkpt lat="59.5517519396" lon="31.2781289779"><ele>54.01</ele><time>2026-09-02T22:19:34Z</time></trkpt><trkpt lat="59.5517887361" lon="31.2782082707"><ele>54.18</ele><time>2026-09-02T22:19:58Z</time></trkpt><trkpt lat="59.5517632551" lon="31.2781981286"><ele>53.84</ele><time>2026-09-02T22:20:19Z</time></trkpt><trkpt lat="59.5517692901" lon="31.2781131361"><ele>53.51</ele><time>2026-09-02T22:20:43Z</time></trkpt><trkpt lat="59.5516915899" lon="31.2779742479"><ele>53.03</ele><time>2026-09-02T22:21:05Z</time></trkpt><trkpt lat="59.5516394544" lon="31.2778398860"><ele>54.20</ele><time>2026-09-02T22:21:21Z</time></trkpt><trkpt lat="59.5515456609" lon="31.2778064422"><ele>54.47</ele><time>2026-09-02T22:21:38Z</time></trkpt><trkpt lat="59.5514856465" lon="31.2777736690"><ele>54.45</ele><time>2026-09-02T22:21:51Z</time></trkpt><trkpt lat="59.5514150709" lon="31.2777537201"><ele>54.92</ele><time>2026-09-02T22:22:05Z</time></trkpt><trkpt lat="59.5513534639" lon="31.2780052610"><ele>53.52</ele><time>2026-09-02T22:22:26Z</time></trkpt><trkpt lat="59.5512586646" lon="31.2781190872"><ele>53.89</ele><time>2026-09-02T22:22:43Z</time></trkpt><trkpt lat="59.5511756837" lon="31.2782055885"><ele>54.55</ele><time>2026-09-02T22:23:01Z</time></trkpt><trkpt lat="59.5511118975" lon="31.2783361785"><ele>53.97</ele><time>2026-09-02T22:23:26Z</time></trkpt><trkpt lat="59.5509386435" lon="31.2784056645"><ele>55.36</ele><time>2026-09-02T22:23:53Z</time></trkpt><trkpt lat="59.5507758670" lon="31.2784575485"><ele>55.08</ele><time>2026-09-02T22:24:22Z</time></trkpt><trkpt lat="59.5506869350" lon="31.2784488313"><ele>55.18</ele><time>2026-09-02T22:24:44Z</time></trkpt><trkpt lat="59.5505505614" lon="31.2784445565"><ele>55.73</ele><time>2026-09-02T22:25:07Z</time></trkpt><trkpt lat="59.5504707657" lon="31.2783761602"><ele>55.17</ele><time>2026-09-02T22:25:37Z</time></trkpt><trkpt lat="59.5504595339" lon="31.2782965321"><ele>55.37</ele><time>2026-09-02T22:26:05Z</time></trkpt><trkpt lat="59.5504866913" lon="31.2782633398"><ele>55.54</ele><time>2026-09-02T22:26:34Z</time></trkpt><trkpt lat="59.5504250843" lon="31.2782767508"><ele>55.39</ele><time>2026-09-02T22:26:58Z</time></trkpt><trkpt lat="59.5504259225" lon="31.2783745676"><ele>55.40</ele><time>2026-09-02T22:27:30Z</time></trkpt><trkpt lat="59.5504189655" lon="31.2784534413"><ele>55.42</ele><time>2026-09-02T22:27:56Z</time></trkpt><trkpt lat="59.5503498986" lon="31.2784784194"><ele>55.42</ele><time>2026-09-02T22:28:51Z</time></trkpt><trkpt lat="59.5503193885" lon="31.2784195784"><ele>56.07</ele><time>2026-09-02T22:29:29Z</time></trkpt><trkpt lat="59.5502508245" lon="31.2781787664"><ele>55.43</ele><time>2026-09-02T22:30:01Z</time></trkpt><trkpt lat="59.5501511637" lon="31.2779150717"><ele>54.28</ele><time>2026-09-02T22:30:25Z</time></trkpt><trkpt lat="59.5500861201" lon="31.2777807936"><ele>56.46</ele><time>2026-09-02T22:30:43Z</time></trkpt><trkpt lat="59.5499206614" lon="31.2776172627"><ele>56.19</ele><time>2026-09-02T22:31:03Z</time></trkpt><trkpt lat="59.5498353336" lon="31.2775410712"><ele>55.42</ele><time>2026-09-02T22:31:26Z</time></trkpt><trkpt lat="59.5497111976" lon="31.2774953898"><ele>55.84</ele><time>2026-09-02T22:31:46Z</time></trkpt><trkpt lat="59.5497065876" lon="31.2776594236"><ele>55.35</ele><time>2026-09-02T22:31:59Z</time></trkpt><trkpt lat="59.5496998820" lon="31.2777605932"><ele>54.99</ele><time>2026-09-02T22:32:21Z</time></trkpt><trkpt lat="59.5496352576" lon="31.2780396268"><ele>55.89</ele><time>2026-09-02T22:32:42Z</time></trkpt><trkpt lat="59.5496222656" lon="31.2781777605"><ele>55.41</ele><time>2026-09-02T22:33:24Z</time></trkpt><trkpt lat="59.5496470761" lon="31.2780902535"><ele>55.56</ele><time>2026-09-02T22:34:03Z</time></trkpt><trkpt lat="59.5496247802" lon="31.2781483401"><ele>55.98</ele><time>2026-09-02T22:34:49Z</time></trkpt><trkpt lat="59.5496060885" lon="31.2783626653"><ele>56.10</ele><time>2026-09-02T22:35:10Z</time></trkpt><trkpt lat="59.5495732315" lon="31.2786393519"><ele>57.46</ele><time>2026-09-02T22:35:41Z</time></trkpt><trkpt lat="59.5495757461" lon="31.2789148651"><ele>56.25</ele><time>2026-09-02T22:36:07Z</time></trkpt><trkpt lat="59.5495814458" lon="31.2791224848"><ele>56.14</ele><time>2026-09-02T22:36:31Z</time></trkpt><trkpt lat="59.5495717227" lon="31.2793400791"><ele>54.96</ele><time>2026-09-02T22:36:54Z</time></trkpt><trkpt lat="59.5496228524" lon="31.2794953957"><ele>55.38</ele><time>2026-09-02T22:37:16Z</time></trkpt><trkpt lat="59.5496959426" lon="31.2796530593"><ele>56.14</ele><time>2026-09-02T22:37:54Z</time></trkpt><trkpt lat="59.5497379359" lon="31.2796889339"><ele>56.34</ele><time>2026-09-02T22:38:26Z</time></trkpt><trkpt lat="59.5496946853" lon="31.2796256505"><ele>56.48</ele><time>2026-09-02T22:39:05Z</time></trkpt><trkpt lat="59.5497107785" lon="31.2795897759"><ele>56.35</ele><time>2026-09-02T22:39:52Z</time></trkpt><trkpt lat="59.5496503450" lon="31.2795784604"><ele>56.16</ele><time>2026-09-02T22:40:28Z</time></trkpt><trkpt lat="59.5496584754" lon="31.2795182783"><ele>56.31</ele><time>2026-09-02T22:40:47Z</time></trkpt><trkpt lat="59.5496764965" lon="31.2796513829"><ele>56.36</ele><time>2026-09-02T22:41:14Z</time></trkpt><trkpt lat="59.5497354213" lon="31.2796460185"><ele>56.27</ele><time>2026-09-02T22:41:49Z</time></trkpt><trkpt lat="59.5497559570" lon="31.2798269000"><ele>56.09</ele><time>2026-09-02T22:42:05Z</time></trkpt><trkpt lat="59.5497981180" lon="31.2800338492"><ele>57.01</ele><time>2026-09-02T22:42:23Z</time></trkpt><trkpt lat="59.5497828629" lon="31.2804425508"><ele>57.44</ele><time>2026-09-02T22:42:51Z</time></trkpt><trkpt lat="59.5498608984" lon="31.2806476559"><ele>56.14</ele><time>2026-09-02T22:43:22Z</time></trkpt><trkpt lat="59.5499255229" lon="31.2808343209"><ele>57.03</ele><time>2026-09-02T22:43:45Z</time></trkpt><trkpt lat="59.5499315578" lon="31.2809997797"><ele>56.80</ele><time>2026-09-02T22:44:26Z</time></trkpt><trkpt lat="59.5499417838" lon="31.2811441999"><ele>57.25</ele><time>2026-09-02T22:44:40Z</time></trkpt><trkpt lat="59.5499738865" lon="31.2813319545"><ele>56.37</ele><time>2026-09-02T22:45:04Z</time></trkpt><trkpt lat="59.5499484893" lon="31.2815687433"><ele>56.40</ele><time>2026-09-02T22:45:35Z</time></trkpt><trkpt lat="59.5499113575" lon="31.2815983314"><ele>56.73</ele><time>2026-09-02T22:45:55Z</time></trkpt><trkpt lat="59.5499047358" lon="31.2816302665"><ele>56.28</ele><time>2026-09-02T22:46:21Z</time></trkpt><trkpt lat="59.5499216672" lon="31.2815556675"><ele>56.25</ele><time>2026-09-02T22:46:42Z</time></trkpt><trkpt lat="59.5499444660" lon="31.2815353833"><ele>56.39</ele><time>2026-09-02T22:46:59Z</time></trkpt><trkpt lat="59.5499515906" lon="31.2815340422"><ele>56.64</ele><time>2026-09-02T22:47:13Z</time></trkpt><trkpt lat="59.5500569511" lon="31.2815833278"><ele>56.51</ele><time>2026-09-02T22:47:27Z</time></trkpt><trkpt lat="59.5501446258" lon="31.2815736048"><ele>56.73</ele><time>2026-09-02T22:47:39Z</time></trkpt><trkpt lat="59.5502502378" lon="31.2815549970"><ele>56.64</ele><time>2026-09-02T22:47:53Z</time></trkpt><trkpt lat="59.5503099170" lon="31.2814976647"><ele>56.64</ele><time>2026-09-02T22:48:14Z</time></trkpt><trkpt lat="59.5503351465" lon="31.2813771330"><ele>56.71</ele><time>2026-09-02T22:48:33Z</time></trkpt><trkpt lat="59.5503886230" lon="31.2812799867"><ele>56.96</ele><time>2026-09-02T22:48:52Z</time></trkpt><trkpt lat="59.5504281856" lon="31.2811759673"><ele>56.27</ele><time>2026-09-02T22:49:04Z</time></trkpt><trkpt lat="59.5505102444" lon="31.2812053878"><ele>56.54</ele><time>2026-09-02T22:49:34Z</time></trkpt><trkpt lat="59.5506547485" lon="31.2813834194"><ele>56.93</ele><time>2026-09-02T22:50:05Z</time></trkpt><trkpt lat="59.5507514756" lon="31.2814520672"><ele>56.44</ele><time>2026-09-02T22:50:28Z</time></trkpt><trkpt lat="59.5508360490" lon="31.2815247383"><ele>56.00</ele><time>2026-09-02T22:50:47Z</time></trkpt><trkpt lat="59.5508542378" lon="31.2815568410"><ele>55.88</ele><time>2026-09-02T22:51:26Z</time></trkpt><trkpt lat="59.5508563332" lon="31.2815448549"><ele>56.08</ele><time>2026-09-02T22:51:58Z</time></trkpt><trkpt lat="59.5509392302" lon="31.2814856786"><ele>56.55</ele><time>2026-09-02T22:52:18Z</time></trkpt><trkpt lat="59.5510090515" lon="31.2815831602"><ele>55.99</ele><time>2026-09-02T22:52:49Z</time></trkpt><trkpt lat="59.5511402283" lon="31.2815354671"><ele>55.62</ele><time>2026-09-02T22:53:18Z</time></trkpt><trkpt lat="59.5512298308" lon="31.2814846728"><ele>56.25</ele><time>2026-09-02T22:53:50Z</time></trkpt><trkpt lat="59.5513147395" lon="31.2814038713"><ele>56.36</ele><time>2026-09-02T22:54:10Z</time></trkpt><trkpt lat="59.5514034200" lon="31.2813572679"><ele>55.35</ele><time>2026-09-02T22:54:31Z</time></trkpt><trkpt lat="59.5514734089" lon="31.2813967466"><ele>55.25</ele><time>2026-09-02T22:54:47Z</time></trkpt><trkpt lat="59.5515263826" lon="31.2814224791"><ele>56.10</ele><time>2026-09-02T22:54:59Z</time></trkpt><trkpt lat="59.5515778475" lon="31.2814201321"><ele>56.37</ele><time>2026-09-02T22:55:05Z</time></trkpt><trkpt lat="59.5516676176" lon="31.2814493850"><ele>54.54</ele><time>2026-09-02T22:55:19Z</time></trkpt><trkpt lat="59.5517120417" lon="31.2813886162"><ele>55.05</ele><time>2026-09-02T22:55:49Z</time></trkpt><trkpt lat="59.5516947750" lon="31.2813017797"><ele>55.17</ele><time>2026-09-02T22:56:35Z</time></trkpt><trkpt lat="59.5517162327" lon="31.2813496403"><ele>55.42</ele><time>2026-09-02T22:57:07Z</time></trkpt><trkpt lat="59.5517597347" lon="31.2813623808"><ele>55.84</ele><time>2026-09-02T22:57:31Z</time></trkpt><trkpt lat="59.5518771652" lon="31.2813685834"><ele>55.04</ele><time>2026-09-02T22:57:48Z</time></trkpt><trkpt lat="59.5519283786" lon="31.2813391630"><ele>54.87</ele><time>2026-09-02T22:58:11Z</time></trkpt><trkpt lat="59.5519820228" lon="31.2813519873"><ele>53.44</ele><time>2026-09-02T22:58:29Z</time></trkpt><trkpt lat="59.5520290453" lon="31.2813579384"><ele>55.29</ele><time>2026-09-02T22:58:50Z</time></trkpt><trkpt lat="59.5521011297" lon="31.2814234849"><ele>54.23</ele><time>2026-09-02T22:59:08Z</time></trkpt><trkpt lat="59.5521330647" lon="31.2814364769"><ele>55.93</ele><time>2026-09-02T22:59:11Z</time></trkpt><trkpt lat="59.5521673467" lon="31.2814271729"><ele>43.43</ele><time>2026-09-02T22:59:33Z</time></trkpt><trkpt lat="59.5521683525" lon="31.2814308610"><ele>59.45</ele><time>2026-09-02T22:59:34Z</time></trkpt><trkpt lat="59.5521719567" lon="31.2814387400"><ele>58.16</ele><time>2026-09-02T22:59:35Z</time></trkpt><trkpt lat="59.5521830209" lon="31.2814635504"><ele>54.24</ele><time>2026-09-02T22:59:37Z</time></trkpt><trkpt lat="59.5522471424" lon="31.2814893667"><ele>55.19</ele><time>2026-09-02T22:59:54Z</time></trkpt><trkpt lat="59.5522446278" lon="31.2816695776"><ele>53.62</ele><time>2026-09-02T23:00:19Z</time></trkpt><trkpt lat="59.5522532612" lon="31.2817359623"><ele>57.03</ele><time>2026-09-02T23:00:29Z</time></trkpt><trkpt lat="59.5522544347" lon="31.2817491218"><ele>53.83</ele><time>2026-09-02T23:00:31Z</time></trkpt><trkpt lat="59.5522571169" lon="31.2818095554"><ele>56.83</ele><time>2026-09-02T23:00:44Z</time></trkpt><trkpt lat="59.5522330608" lon="31.2818959728"><ele>52.99</ele><time>2026-09-02T23:00:57Z</time></trkpt><trkpt lat="59.5522536803" lon="31.2820277363"><ele>54.19</ele><time>2026-09-02T23:01:22Z</time></trkpt><trkpt lat="59.5522955898" lon="31.2822101265"><ele>54.37</ele><time>2026-09-02T23:01:44Z</time></trkpt><trkpt lat="59.5523179695" lon="31.2823043391"><ele>54.44</ele><time>2026-09-02T23:01:57Z</time></trkpt><trkpt lat="59.5523386728" lon="31.2824539561"><ele>54.01</ele><time>2026-09-02T23:02:27Z</time></trkpt><trkpt lat="59.5523798279" lon="31.2825456541"><ele>53.11</ele><time>2026-09-02T23:02:47Z</time></trkpt><trkpt lat="59.5524215698" lon="31.2826011423"><ele>56.31</ele><time>2026-09-02T23:03:04Z</time></trkpt><trkpt lat="59.5524612162" lon="31.2825996336"><ele>55.79</ele><time>2026-09-02T23:03:24Z</time></trkpt><trkpt lat="59.5524641499" lon="31.2826144695"><ele>52.46</ele><time>2026-09-02T23:03:31Z</time></trkpt><trkpt lat="59.5524639823" lon="31.2826140504"><ele>55.57</ele><time>2026-09-02T23:03:32Z</time></trkpt><trkpt lat="59.5524871163" lon="31.2826388609"><ele>51.95</ele><time>2026-09-02T23:03:59Z</time></trkpt><trkpt lat="59.5524882898" lon="31.2826373521"><ele>52.91</ele><time>2026-09-02T23:04:00Z</time></trkpt><trkpt lat="59.5524904691" lon="31.2826636713"><ele>56.12</ele><time>2026-09-02T23:04:16Z</time></trkpt><trkpt lat="59.5524828415" lon="31.2827516813"><ele>52.74</ele><time>2026-09-02T23:04:27Z</time></trkpt><trkpt lat="59.5525037963" lon="31.2829045672"><ele>53.90</ele><time>2026-09-02T23:04:47Z</time></trkpt><trkpt lat="59.5525938179" lon="31.2829123624"><ele>54.45</ele><time>2026-09-02T23:05:07Z</time></trkpt><trkpt lat="59.5526829176" lon="31.2828303874"><ele>53.80</ele><time>2026-09-02T23:05:34Z</time></trkpt><trkpt lat="59.5527358912" lon="31.2826815248"><ele>54.49</ele><time>2026-09-02T23:05:54Z</time></trkpt><trkpt lat="59.5527608693" lon="31.2826261204"><ele>54.17</ele><time>2026-09-02T23:06:10Z</time></trkpt><trkpt lat="59.5527158584" lon="31.2825624179"><ele>54.28</ele><time>2026-09-02T23:06:24Z</time></trkpt><trkpt lat="59.5526578557" lon="31.2824622542"><ele>53.78</ele><time>2026-09-02T23:06:50Z</time></trkpt><trkpt lat="59.5526200533" lon="31.2823660299"><ele>53.15</ele><time>2026-09-02T23:07:17Z</time></trkpt><trkpt lat="59.5526285190" lon="31.2823247910"><ele>54.39</ele><time>2026-09-02T23:07:32Z</time></trkpt><trkpt lat="59.5526215620" lon="31.2823950313"><ele>53.69</ele><time>2026-09-02T23:08:17Z</time></trkpt><trkpt lat="59.5526327938" lon="31.2823747471"><ele>53.60</ele><time>2026-09-02T23:08:52Z</time></trkpt><trkpt lat="59.5526331291" lon="31.2823546305"><ele>53.76</ele><time>2026-09-02T23:09:30Z</time></trkpt><trkpt lat="59.5526221488" lon="31.2823418900"><ele>53.44</ele><time>2026-09-02T23:10:25Z</time></trkpt><trkpt lat="59.5526305307" lon="31.2823468354"><ele>53.54</ele><time>2026-09-02T23:11:06Z</time></trkpt><trkpt lat="59.5526333805" lon="31.2823690474"><ele>53.38</ele><time>2026-09-02T23:11:33Z</time></trkpt><trkpt lat="59.5526240766" lon="31.2823382858"><ele>53.74</ele><time>2026-09-02T23:12:13Z</time></trkpt><trkpt lat="59.5526369847" lon="31.2823087815"><ele>53.01</ele><time>2026-09-02T23:12:29Z</time></trkpt><trkpt lat="59.5526129287" lon="31.2822276447"><ele>53.90</ele><time>2026-09-02T23:12:44Z</time></trkpt><trkpt lat="59.5526158623" lon="31.2820704840"><ele>54.58</ele><time>2026-09-02T23:13:06Z</time></trkpt><trkpt lat="59.5526301954" lon="31.2819460966"><ele>53.78</ele><time>2026-09-02T23:13:24Z</time></trkpt><trkpt lat="59.5526304469" lon="31.2819153350"><ele>53.00</ele><time>2026-09-02T23:13:34Z</time></trkpt><trkpt lat="59.5526547544" lon="31.2818370480"><ele>52.89</ele><time>2026-09-02T23:13:55Z</time></trkpt><trkpt lat="59.5526478812" lon="31.2817754410"><ele>53.43</ele><time>2026-09-02T23:14:17Z</time></trkpt><trkpt lat="59.5526600350" lon="31.2816721760"><ele>53.63</ele><time>2026-09-02T23:14:38Z</time></trkpt><trkpt lat="59.5527074765" lon="31.2817101460"><ele>53.59</ele><time>2026-09-02T23:15:07Z</time></trkpt><trkpt lat="59.5527265873" lon="31.2817457691"><ele>54.38</ele><time>2026-09-02T23:15:13Z</time></trkpt><trkpt lat="59.5527257491" lon="31.2817588449"><ele>53.49</ele><time>2026-09-02T23:15:15Z</time></trkpt><trkpt lat="59.5527803991" lon="31.2817058712"><ele>53.44</ele><time>2026-09-02T23:15:44Z</time></trkpt><trkpt lat="59.5527960733" lon="31.2817455176"><ele>50.43</ele><time>2026-09-02T23:15:53Z</time></trkpt><trkpt lat="59.5527983364" lon="31.2817514688"><ele>54.86</ele><time>2026-09-02T23:15:54Z</time></trkpt><trkpt lat="59.5528355520" lon="31.2817905284"><ele>50.73</ele><time>2026-09-02T23:16:09Z</time></trkpt><trkpt lat="59.5528368931" lon="31.2817981560"><ele>54.87</ele><time>2026-09-02T23:16:10Z</time></trkpt><trkpt lat="59.5528511424" lon="31.2819442526"><ele>53.53</ele><time>2026-09-02T23:16:27Z</time></trkpt><trkpt lat="59.5528453588" lon="31.2819550652"><ele>49.79</ele><time>2026-09-02T23:16:37Z</time></trkpt><trkpt lat="59.5528474543" lon="31.2819568254"><ele>51.92</ele><time>2026-09-02T23:16:38Z</time></trkpt><trkpt lat="59.5528467838" lon="31.2819623575"><ele>52.95</ele><time>2026-09-02T23:16:40Z</time></trkpt><trkpt lat="59.5528478734" lon="31.2819716614"><ele>52.43</ele><time>2026-09-02T23:16:44Z</time></trkpt><trkpt lat="59.5528615359" lon="31.2820513733"><ele>52.02</ele><time>2026-09-02T23:17:02Z</time></trkpt><trkpt lat="59.5528601948" lon="31.2820539717"><ele>48.16</ele><time>2026-09-02T23:17:03Z</time></trkpt><trkpt lat="59.5528593566" lon="31.2820560671"><ele>57.22</ele><time>2026-09-02T23:17:04Z</time></trkpt><trkpt lat="59.5528593566" lon="31.2820601743"><ele>54.41</ele><time>2026-09-02T23:17:05Z</time></trkpt><trkpt lat="59.5528036170" lon="31.2821543869"><ele>53.08</ele><time>2026-09-02T23:17:22Z</time></trkpt><trkpt lat="59.5527593605" lon="31.2822849769"><ele>53.46</ele><time>2026-09-02T23:17:39Z</time></trkpt><trkpt lat="59.5527170319" lon="31.2824194226"><ele>53.47</ele><time>2026-09-02T23:18:00Z</time></trkpt><trkpt lat="59.5526931435" lon="31.2825297285"><ele>53.16</ele><time>2026-09-02T23:18:17Z</time></trkpt><trkpt lat="59.5526923891" lon="31.2825332489"><ele>51.77</ele><time>2026-09-02T23:18:28Z</time></trkpt><trkpt lat="59.5526925568" lon="31.2825358473"><ele>55.68</ele><time>2026-09-02T23:18:29Z</time></trkpt><trkpt lat="59.5526969153" lon="31.2825336680"><ele>54.39</ele><time>2026-09-02T23:18:30Z</time></trkpt><trkpt lat="59.5526794810" lon="31.2825452350"><ele>52.64</ele><time>2026-09-02T23:18:57Z</time></trkpt><trkpt lat="59.5526230708" lon="31.2825615797"><ele>52.92</ele><time>2026-09-02T23:19:32Z</time></trkpt><trkpt lat="59.5526001882" lon="31.2825987116"><ele>48.55</ele><time>2026-09-02T23:20:03Z</time></trkpt><trkpt lat="59.5526013616" lon="31.2826044951"><ele>54.20</ele><time>2026-09-02T23:20:04Z</time></trkpt><trkpt lat="59.5526020322" lon="31.2826068420"><ele>53.79</ele><time>2026-09-02T23:20:05Z</time></trkpt><trkpt lat="59.5526122581" lon="31.2825869769"><ele>50.22</ele><time>2026-09-02T23:20:43Z</time></trkpt><trkpt lat="59.5526116714" lon="31.2825862225"><ele>55.39</ele><time>2026-09-02T23:20:45Z</time></trkpt><trkpt lat="59.5526132639" lon="31.2825511862"><ele>52.32</ele><time>2026-09-02T23:20:52Z</time></trkpt><trkpt lat="59.5525822509" lon="31.2825818639"><ele>52.37</ele><time>2026-09-02T23:21:45Z</time></trkpt><trkpt lat="59.5526464563" lon="31.2824963685"><ele>52.37</ele><time>2026-09-02T23:22:25Z</time></trkpt><trkpt lat="59.5526883658" lon="31.2823922653"><ele>52.60</ele><time>2026-09-02T23:22:38Z</time></trkpt><trkpt lat="59.5527431834" lon="31.2823265512"><ele>52.52</ele><time>2026-09-02T23:22:53Z</time></trkpt><trkpt lat="59.5527696703" lon="31.2822374515"><ele>52.48</ele><time>2026-09-02T23:23:16Z</time></trkpt><trkpt lat="59.5528015215" lon="31.2821339350"><ele>52.68</ele><time>2026-09-02T23:23:34Z</time></trkpt><trkpt lat="59.5528629608" lon="31.2819634471"><ele>52.24</ele><time>2026-09-02T23:23:51Z</time></trkpt><trkpt lat="59.5528815687" lon="31.2819472700"><ele>53.50</ele><time>2026-09-02T23:24:15Z</time></trkpt><trkpt lat="59.5529271662" lon="31.2820234615"><ele>52.32</ele><time>2026-09-02T23:24:35Z</time></trkpt><trkpt lat="59.5529775415" lon="31.2819575798"><ele>52.89</ele><time>2026-09-02T23:24:51Z</time></trkpt><trkpt lat="59.5530340355" lon="31.2820025906"><ele>53.25</ele><time>2026-09-02T23:25:19Z</time></trkpt><trkpt lat="59.5531187765" lon="31.2820493616"><ele>53.14</ele><time>2026-09-02T23:26:03Z</time></trkpt><trkpt lat="59.5531121548" lon="31.2820556480"><ele>53.45</ele><time>2026-09-02T23:26:28Z</time></trkpt><trkpt lat="59.5531570818" lon="31.2821387965"><ele>52.83</ele><time>2026-09-02T23:26:55Z</time></trkpt><trkpt lat="59.5532543119" lon="31.2822206039"><ele>52.56</ele><time>2026-09-02T23:27:26Z</time></trkpt><trkpt lat="59.5533491950" lon="31.2823055964"><ele>52.04</ele><time>2026-09-02T23:28:06Z</time></trkpt><trkpt lat="59.5534159988" lon="31.2823050935"><ele>52.43</ele><time>2026-09-02T23:28:33Z</time></trkpt><trkpt lat="59.5535356924" lon="31.2822527904"><ele>52.34</ele><time>2026-09-02T23:28:55Z</time></trkpt><trkpt lat="59.5535307471" lon="31.2823041715"><ele>52.34</ele><time>2026-09-02T23:29:35Z</time></trkpt><trkpt lat="59.5535530429" lon="31.2823096197"><ele>52.47</ele><time>2026-09-02T23:30:01Z</time></trkpt><trkpt lat="59.5535926893" lon="31.2822993938"><ele>52.44</ele><time>2026-09-02T23:30:37Z</time></trkpt><trkpt lat="59.5536436513" lon="31.2823147327"><ele>52.25</ele><time>2026-09-02T23:30:56Z</time></trkpt><trkpt lat="59.5537161548" lon="31.2823256291"><ele>51.99</ele><time>2026-09-02T23:31:34Z</time></trkpt><trkpt lat="59.5537988842" lon="31.2823398784"><ele>52.04</ele><time>2026-09-02T23:32:01Z</time></trkpt><trkpt lat="59.5538995508" lon="31.2824748270"><ele>51.70</ele><time>2026-09-02T23:32:24Z</time></trkpt><trkpt lat="59.5539969485" lon="31.2824306544"><ele>51.99</ele><time>2026-09-02T23:32:42Z</time></trkpt><trkpt lat="59.5540691167" lon="31.2825004756"><ele>52.51</ele><time>2026-09-02T23:33:01Z</time></trkpt><trkpt lat="59.5542111900" lon="31.2824025750"><ele>52.03</ele><time>2026-09-02T23:33:25Z</time></trkpt><trkpt lat="59.5542905666" lon="31.2823564745"><ele>52.42</ele><time>2026-09-02T23:33:44Z</time></trkpt><trkpt lat="59.5543619804" lon="31.2822847255"><ele>52.42</ele><time>2026-09-02T23:34:01Z</time></trkpt><trkpt lat="59.5544095896" lon="31.2822393794"><ele>52.31</ele><time>2026-09-02T23:34:20Z</time></trkpt><trkpt lat="59.5544373337" lon="31.2823697180"><ele>52.13</ele><time>2026-09-02T23:34:53Z</time></trkpt><trkpt lat="59.5544294547" lon="31.2824477535"><ele>52.30</ele><time>2026-09-02T23:35:22Z</time></trkpt><trkpt lat="59.5544789918" lon="31.2823589053"><ele>52.49</ele><time>2026-09-02T23:35:42Z</time></trkpt><trkpt lat="59.5546148624" lon="31.2822464202"><ele>51.98</ele><time>2026-09-02T23:35:58Z</time></trkpt><trkpt lat="59.5547098294" lon="31.2822352722"><ele>51.80</ele><time>2026-09-02T23:36:15Z</time></trkpt><trkpt lat="59.5547959954" lon="31.2823219411"><ele>52.24</ele><time>2026-09-02T23:36:35Z</time></trkpt><trkpt lat="59.5548254997" lon="31.2825109530"><ele>52.13</ele><time>2026-09-02T23:36:49Z</time></trkpt><trkpt lat="59.5548537467" lon="31.2826433871"><ele>51.86</ele><time>2026-09-02T23:37:14Z</time></trkpt><trkpt lat="59.5548602846" lon="31.2827347498"><ele>51.82</ele><time>2026-09-02T23:37:32Z</time></trkpt><trkpt lat="59.5549377333" lon="31.2827555370"><ele>51.88</ele><time>2026-09-02T23:37:51Z</time></trkpt><trkpt lat="59.5549410861" lon="31.2826956902"><ele>51.79</ele><time>2026-09-02T23:38:06Z</time></trkpt><trkpt lat="59.5549544971" lon="31.2826916669"><ele>52.23</ele><time>2026-09-02T23:38:21Z</time></trkpt><trkpt lat="59.5549596939" lon="31.2826929241"><ele>51.85</ele><time>2026-09-02T23:38:42Z</time></trkpt><trkpt lat="59.5549590234" lon="31.2827773299"><ele>51.95</ele><time>2026-09-02T23:39:20Z</time></trkpt><trkpt lat="59.5549442712" lon="31.2827812694"><ele>51.95</ele><time>2026-09-02T23:40:09Z</time></trkpt><trkpt lat="59.5549292676" lon="31.2827962730"><ele>51.49</ele><time>2026-09-02T23:40:37Z</time></trkpt><trkpt lat="59.5549291000" lon="31.2827851251"><ele>51.80</ele><time>2026-09-02T23:41:12Z</time></trkpt><trkpt lat="59.5548889507" lon="31.2828738894"><ele>50.99</ele><time>2026-09-02T23:41:28Z</time></trkpt><trkpt lat="59.5548285171" lon="31.2829016335"><ele>51.59</ele><time>2026-09-02T23:41:51Z</time></trkpt><trkpt lat="59.5547849312" lon="31.2830235902"><ele>51.73</ele><time>2026-09-02T23:42:04Z</time></trkpt><trkpt lat="59.5547501463" lon="31.2831869535"><ele>51.80</ele><time>2026-09-02T23:42:25Z</time></trkpt><trkpt lat="59.5547649823" lon="31.2833843473"><ele>51.33</ele><time>2026-09-02T23:42:43Z</time></trkpt><trkpt lat="59.5548115857" lon="31.2835121714"><ele>51.11</ele><time>2026-09-02T23:42:58Z</time></trkpt><trkpt lat="59.5549062174" lon="31.2836781330"><ele>51.03</ele><time>2026-09-02T23:43:16Z</time></trkpt><trkpt lat="59.5549684949" lon="31.2837214675"><ele>50.49</ele><time>2026-09-02T23:43:36Z</time></trkpt><trkpt lat="59.5550088957" lon="31.2838596851"><ele>50.64</ele><time>2026-09-02T23:44:05Z</time></trkpt><trkpt lat="59.5550152659" lon="31.2838980742"><ele>50.51</ele><time>2026-09-02T23:44:25Z</time></trkpt><trkpt lat="59.5550471172" lon="31.2840403989"><ele>50.92</ele><time>2026-09-02T23:44:46Z</time></trkpt><trkpt lat="59.5550982468" lon="31.2841518782"><ele>51.27</ele><time>2026-09-02T23:45:08Z</time></trkpt><trkpt lat="59.5551138371" lon="31.2842688896"><ele>51.29</ele><time>2026-09-02T23:45:26Z</time></trkpt><trkpt lat="59.5550620370" lon="31.2843452487"><ele>50.64</ele><time>2026-09-02T23:45:40Z</time></trkpt><trkpt lat="59.5550138410" lon="31.2843916845"><ele>50.69</ele><time>2026-09-02T23:46:02Z</time></trkpt><trkpt lat="59.5550011843" lon="31.2844844721"><ele>50.56</ele><time>2026-09-02T23:46:25Z</time></trkpt><trkpt lat="59.5549637172" lon="31.2845275551"><ele>50.86</ele><time>2026-09-02T23:46:42Z</time></trkpt><trkpt lat="59.5549249928" lon="31.2845579814"><ele>50.35</ele><time>2026-09-02T23:46:56Z</time></trkpt><trkpt lat="59.5549102407" lon="31.2845723983"><ele>50.88</ele><time>2026-09-02T23:47:12Z</time></trkpt><trkpt lat="59.5549225621" lon="31.2846088596"><ele>51.12</ele><time>2026-09-02T23:47:32Z</time></trkpt><trkpt lat="59.5548760425" lon="31.2846136373"><ele>50.85</ele><time>2026-09-02T23:47:50Z</time></trkpt><trkpt lat="59.5548484661" lon="31.2846487574"><ele>50.76</ele><time>2026-09-02T23:48:10Z</time></trkpt><trkpt lat="59.5548664872" lon="31.2846087757"><ele>50.85</ele><time>2026-09-02T23:48:31Z</time></trkpt><trkpt lat="59.5548742823" lon="31.2845921796"><ele>50.69</ele><time>2026-09-02T23:49:05Z</time></trkpt><trkpt lat="59.5548434369" lon="31.2846496794"><ele>50.88</ele><time>2026-09-02T23:49:46Z</time></trkpt><trkpt lat="59.5548788924" lon="31.2847859692"><ele>50.37</ele><time>2026-09-02T23:50:14Z</time></trkpt><trkpt lat="59.5548937283" lon="31.2848759908"><ele>50.69</ele><time>2026-09-02T23:50:35Z</time></trkpt><trkpt lat="59.5549135935" lon="31.2849589717"><ele>50.77</ele><time>2026-09-02T23:50:53Z</time></trkpt><trkpt lat="59.5549234841" lon="31.2850164715"><ele>50.41</ele><time>2026-09-02T23:51:17Z</time></trkpt><trkpt lat="59.5549245737" lon="31.2850358337"><ele>44.62</ele><time>2026-09-02T23:51:26Z</time></trkpt><trkpt lat="59.5549248252" lon="31.2850358337"><ele>54.66</ele><time>2026-09-02T23:51:27Z</time></trkpt><trkpt lat="59.5549246576" lon="31.2850355823"><ele>51.84</ele><time>2026-09-02T23:51:28Z</time></trkpt><trkpt lat="59.5549242385" lon="31.2850342412"><ele>50.70</ele><time>2026-09-02T23:51:30Z</time></trkpt><trkpt lat="59.5549379848" lon="31.2851602212"><ele>50.89</ele><time>2026-09-02T23:52:09Z</time></trkpt><trkpt lat="59.5550242346" lon="31.2852644920"><ele>50.37</ele><time>2026-09-02T23:52:28Z</time></trkpt><trkpt lat="59.5550262462" lon="31.2853292841"><ele>50.54</ele><time>2026-09-02T23:52:47Z</time></trkpt><trkpt lat="59.5550685748" lon="31.2852182239"><ele>51.21</ele><time>2026-09-02T23:53:11Z</time></trkpt><trkpt lat="59.5551542379" lon="31.2852899730"><ele>50.51</ele><time>2026-09-02T23:53:46Z</time></trkpt><trkpt lat="59.5551852509" lon="31.2854200602"><ele>50.91</ele><time>2026-09-02T23:54:11Z</time></trkpt><trkpt lat="59.5552337822" lon="31.2853468023"><ele>50.16</ele><time>2026-09-02T23:54:33Z</time></trkpt><trkpt lat="59.5552165993" lon="31.2853619736"><ele>45.99</ele><time>2026-09-02T23:54:43Z</time></trkpt><trkpt lat="59.5552133303" lon="31.2853630632"><ele>49.86</ele><time>2026-09-02T23:54:44Z</time></trkpt><trkpt lat="59.5551907830" lon="31.2853609677"><ele>42.13</ele><time>2026-09-02T23:54:53Z</time></trkpt><trkpt lat="59.5551891904" lon="31.2853599619"><ele>51.81</ele><time>2026-09-02T23:54:54Z</time></trkpt><trkpt lat="59.5551882684" lon="31.2853558548"><ele>43.37</ele><time>2026-09-02T23:54:55Z</time></trkpt><trkpt lat="59.5551880170" lon="31.2853530888"><ele>61.22</ele><time>2026-09-02T23:54:56Z</time></trkpt><trkpt lat="59.5551896933" lon="31.2853564415"><ele>53.18</ele><time>2026-09-02T23:54:57Z</time></trkpt><trkpt lat="59.5552566648" lon="31.2854406796"><ele>50.64</ele><time>2026-09-02T23:55:18Z</time></trkpt><trkpt lat="59.5552998316" lon="31.2855951581"><ele>51.08</ele><time>2026-09-02T23:55:41Z</time></trkpt><trkpt lat="59.5553245582" lon="31.2857322861"><ele>50.44</ele><time>2026-09-02T23:55:56Z</time></trkpt><trkpt lat="59.5553586725" lon="31.2858097348"><ele>50.44</ele><time>2026-09-02T23:56:15Z</time></trkpt><trkpt lat="59.5553826448" lon="31.2859620340"><ele>50.02</ele><time>2026-09-02T23:56:34Z</time></trkpt><trkpt lat="59.5553707425" lon="31.2860784587"><ele>50.46</ele><time>2026-09-02T23:56:46Z</time></trkpt><trkpt lat="59.5553501230" lon="31.2861146685"><ele>50.55</ele><time>2026-09-02T23:57:00Z</time></trkpt><trkpt lat="59.5553115662" lon="31.2862109765"><ele>47.81</ele><time>2026-09-02T23:57:29Z</time></trkpt><trkpt lat="59.5553078782" lon="31.2862263992"><ele>51.18</ele><time>2026-09-02T23:57:30Z</time></trkpt><trkpt lat="59.5552638732" lon="31.2863072846"><ele>50.61</ele><time>2026-09-02T23:57:50Z</time></trkpt><trkpt lat="59.5552329440" lon="31.2863704003"><ele>50.59</ele><time>2026-09-02T23:58:07Z</time></trkpt><trkpt lat="59.5552287530" lon="31.2863806263"><ele>52.32</ele><time>2026-09-02T23:58:34Z</time></trkpt><trkpt lat="59.5552198682" lon="31.2863571569"><ele>47.01</ele><time>2026-09-02T23:58:47Z</time></trkpt><trkpt lat="59.5552200358" lon="31.2863577437"><ele>51.65</ele><time>2026-09-02T23:58:48Z</time></trkpt><trkpt lat="59.5552221313" lon="31.2863663770"><ele>52.93</ele><time>2026-09-02T23:58:50Z</time></trkpt><trkpt lat="59.5551953930" lon="31.2863506190"><ele>51.20</ele><time>2026-09-02T23:59:18Z</time></trkpt><trkpt lat="59.5551788807" lon="31.2863214500"><ele>51.62</ele><time>2026-09-02T23:59:45Z</time></trkpt><trkpt lat="59.5552268252" lon="31.2864247989"><ele>51.35</ele><time>2026-09-03T00:00:10Z</time></trkpt><trkpt lat="59.5552145876" lon="31.2864026707"><ele>51.20</ele><time>2026-09-03T00:00:46Z</time></trkpt><trkpt lat="59.5552256517" lon="31.2863990664"><ele>51.47</ele><time>2026-09-03T00:01:20Z</time></trkpt><trkpt lat="59.5552122407" lon="31.2863413990"><ele>51.43</ele><time>2026-09-03T00:01:49Z</time></trkpt><trkpt lat="59.5552194491" lon="31.2863175943"><ele>51.18</ele><time>2026-09-03T00:02:18Z</time></trkpt><trkpt lat="59.5551945549" lon="31.2863060273"><ele>51.33</ele><time>2026-09-03T00:02:36Z</time></trkpt><trkpt lat="59.5551335346" lon="31.2862870842"><ele>50.81</ele><time>2026-09-03T00:02:52Z</time></trkpt><trkpt lat="59.5550939720" lon="31.2862621900"><ele>51.47</ele><time>2026-09-03T00:03:09Z</time></trkpt><trkpt lat="59.5551006775" lon="31.2861794606"><ele>51.61</ele><time>2026-09-03T00:03:23Z</time></trkpt><trkpt lat="59.5550274197" lon="31.2861254811"><ele>51.41</ele><time>2026-09-03T00:03:45Z</time></trkpt><trkpt lat="59.5549854264" lon="31.2861207873"><ele>51.15</ele><time>2026-09-03T00:04:22Z</time></trkpt><trkpt lat="59.5549235679" lon="31.2861590926"><ele>50.96</ele><time>2026-09-03T00:04:39Z</time></trkpt><trkpt lat="59.5549093187" lon="31.2862202805"><ele>50.95</ele><time>2026-09-03T00:04:53Z</time></trkpt><trkpt lat="59.5548801497" lon="31.2862404808"><ele>51.05</ele><time>2026-09-03T00:05:06Z</time></trkpt><trkpt lat="59.5548202191" lon="31.2861922849"><ele>51.28</ele><time>2026-09-03T00:05:24Z</time></trkpt><trkpt lat="59.5547940675" lon="31.2862241361"><ele>51.11</ele><time>2026-09-03T00:05:35Z</time></trkpt><trkpt lat="59.5547417644" lon="31.2862137426"><ele>50.94</ele><time>2026-09-03T00:05:47Z</time></trkpt><trkpt lat="59.5547307841" lon="31.2862154189"><ele>51.06</ele><time>2026-09-03T00:05:49Z</time></trkpt><trkpt lat="59.5546621364" lon="31.2861763593"><ele>51.20</ele><time>2026-09-03T00:06:04Z</time></trkpt><trkpt lat="59.5546059776" lon="31.2861882616"><ele>51.15</ele><time>2026-09-03T00:06:22Z</time></trkpt><trkpt lat="59.5545642357" lon="31.2861572485"><ele>51.22</ele><time>2026-09-03T00:06:52Z</time></trkpt><trkpt lat="59.5545097534" lon="31.2861960568"><ele>48.54</ele><time>2026-09-03T00:07:03Z</time></trkpt><trkpt lat="59.5544974320" lon="31.2861813884"><ele>51.59</ele><time>2026-09-03T00:07:07Z</time></trkpt><trkpt lat="59.5544934925" lon="31.2861728389"><ele>51.42</ele><time>2026-09-03T00:07:08Z</time></trkpt><trkpt lat="59.5544069912" lon="31.2861077953"><ele>51.56</ele><time>2026-09-03T00:07:22Z</time></trkpt><trkpt lat="59.5543572865" lon="31.2860906962"><ele>51.88</ele><time>2026-09-03T00:07:29Z</time></trkpt><trkpt lat="59.5542899799" lon="31.2861057837"><ele>51.99</ele><time>2026-09-03T00:07:43Z</time></trkpt><trkpt lat="59.5542535186" lon="31.2861042749"><ele>51.87</ele><time>2026-09-03T00:07:59Z</time></trkpt><trkpt lat="59.5542782452" lon="31.2861288339"><ele>51.75</ele><time>2026-09-03T00:08:26Z</time></trkpt><trkpt lat="59.5542545244" lon="31.2860774528"><ele>51.79</ele><time>2026-09-03T00:09:02Z</time></trkpt><trkpt lat="59.5542207453" lon="31.2860167678"><ele>51.58</ele><time>2026-09-03T00:09:20Z</time></trkpt><trkpt lat="59.5541621558" lon="31.2859131675"><ele>51.91</ele><time>2026-09-03T00:09:32Z</time></trkpt><trkpt lat="59.5541097689" lon="31.2858897820"><ele>51.89</ele><time>2026-09-03T00:09:47Z</time></trkpt><trkpt lat="59.5540275425" lon="31.2859069649"><ele>51.82</ele><time>2026-09-03T00:09:59Z</time></trkpt><trkpt lat="59.5539677795" lon="31.2858714256"><ele>51.98</ele><time>2026-09-03T00:10:09Z</time></trkpt><trkpt lat="59.5539326593" lon="31.2858022749"><ele>51.95</ele><time>2026-09-03T00:10:23Z</time></trkpt><trkpt lat="59.5538763329" lon="31.2858240679"><ele>51.71</ele><time>2026-09-03T00:10:37Z</time></trkpt><trkpt lat="59.5538587309" lon="31.2857992575"><ele>52.35</ele><time>2026-09-03T00:11:04Z</time></trkpt><trkpt lat="59.5538325794" lon="31.2857796438"><ele>52.14</ele><time>2026-09-03T00:11:25Z</time></trkpt><trkpt lat="59.5538220182" lon="31.2857602816"><ele>52.57</ele><time>2026-09-03T00:11:28Z</time></trkpt><trkpt lat="59.5537851378" lon="31.2857602816"><ele>52.49</ele><time>2026-09-03T00:11:47Z</time></trkpt><trkpt lat="59.5537113771" lon="31.2857437693"><ele>52.28</ele><time>2026-09-03T00:12:01Z</time></trkpt><trkpt lat="59.5536851417" lon="31.2858658936"><ele>51.92</ele><time>2026-09-03T00:12:16Z</time></trkpt><trkpt lat="59.5536249597" lon="31.2858836632"><ele>51.99</ele><time>2026-09-03T00:12:29Z</time></trkpt><trkpt lat="59.5535698906" lon="31.2859378941"><ele>51.54</ele><time>2026-09-03T00:12:54Z</time></trkpt><trkpt lat="59.5535469241" lon="31.2858921289"><ele>52.26</ele><time>2026-09-03T00:13:09Z</time></trkpt><trkpt lat="59.5534936991" lon="31.2858618703"><ele>51.92</ele><time>2026-09-03T00:13:27Z</time></trkpt><trkpt lat="59.5534669608" lon="31.2857776321"><ele>52.15</ele><time>2026-09-03T00:13:47Z</time></trkpt><trkpt lat="59.5534419827" lon="31.2857539952"><ele>52.58</ele><time>2026-09-03T00:14:11Z</time></trkpt><trkpt lat="59.5534252189" lon="31.2857563421"><ele>52.50</ele><time>2026-09-03T00:14:52Z</time></trkpt><trkpt lat="59.5533975586" lon="31.2857090682"><ele>52.14</ele><time>2026-09-03T00:15:13Z</time></trkpt><trkpt lat="59.5533976424" lon="31.2855919730"><ele>52.32</ele><time>2026-09-03T00:15:30Z</time></trkpt><trkpt lat="59.5533704013" lon="31.2855032086"><ele>52.35</ele><time>2026-09-03T00:15:48Z</time></trkpt><trkpt lat="59.5533484407" lon="31.2854696810"><ele>52.79</ele><time>2026-09-03T00:16:04Z</time></trkpt><trkpt lat="59.5533143263" lon="31.2853677571"><ele>52.51</ele><time>2026-09-03T00:16:19Z</time></trkpt><trkpt lat="59.5532802958" lon="31.2853039708"><ele>52.55</ele><time>2026-09-03T00:16:32Z</time></trkpt><trkpt lat="59.5532317646" lon="31.2852337305"><ele>52.36</ele><time>2026-09-03T00:16:45Z</time></trkpt><trkpt lat="59.5532162581" lon="31.2852021307"><ele>52.84</ele><time>2026-09-03T00:17:01Z</time></trkpt><trkpt lat="59.5532050263" lon="31.2852151226"><ele>52.36</ele><time>2026-09-03T00:17:17Z</time></trkpt><trkpt lat="59.5531767793" lon="31.2851322256"><ele>52.56</ele><time>2026-09-03T00:17:30Z</time></trkpt><trkpt lat="59.5531650446" lon="31.2850235961"><ele>52.34</ele><time>2026-09-03T00:17:44Z</time></trkpt><trkpt lat="59.5531257335" lon="31.2849032320"><ele>52.49</ele><time>2026-09-03T00:18:06Z</time></trkpt><trkpt lat="59.5530745201" lon="31.2848345842"><ele>52.73</ele><time>2026-09-03T00:18:25Z</time></trkpt><trkpt lat="59.5530650485" lon="31.2848240230"><ele>52.02</ele><time>2026-09-03T00:18:40Z</time></trkpt><trkpt lat="59.5530655514" lon="31.2848255318"><ele>53.73</ele><time>2026-09-03T00:18:42Z</time></trkpt><trkpt lat="59.5530326944" lon="31.2847876456"><ele>53.43</ele><time>2026-09-03T00:19:04Z</time></trkpt><trkpt lat="59.5530006755" lon="31.2848189939"><ele>53.23</ele><time>2026-09-03T00:19:17Z</time></trkpt><trkpt lat="59.5529628731" lon="31.2847719714"><ele>53.38</ele><time>2026-09-03T00:19:34Z</time></trkpt><trkpt lat="59.5529405773" lon="31.2847506814"><ele>53.08</ele><time>2026-09-03T00:19:46Z</time></trkpt><trkpt lat="59.5528978296" lon="31.2847271282"><ele>53.05</ele><time>2026-09-03T00:20:02Z</time></trkpt><trkpt lat="59.5528399944" lon="31.2847170699"><ele>52.93</ele><time>2026-09-03T00:20:19Z</time></trkpt><trkpt lat="59.5527896192" lon="31.2847358454"><ele>53.14</ele><time>2026-09-03T00:20:33Z</time></trkpt><trkpt lat="59.5527719334" lon="31.2847459875"><ele>53.01</ele><time>2026-09-03T00:21:09Z</time></trkpt><trkpt lat="59.5527610369" lon="31.2849147990"><ele>53.17</ele><time>2026-09-03T00:21:23Z</time></trkpt><trkpt lat="59.5527846739" lon="31.2850477360"><ele>53.36</ele><time>2026-09-03T00:21:35Z</time></trkpt><trkpt lat="59.5527559239" lon="31.2850845326"><ele>53.11</ele><time>2026-09-03T00:21:55Z</time></trkpt><trkpt lat="59.5527036209" lon="31.2851717882"><ele>53.31</ele><time>2026-09-03T00:22:08Z</time></trkpt><trkpt lat="59.5526820794" lon="31.2852467224"><ele>53.17</ele><time>2026-09-03T00:22:15Z</time></trkpt><trkpt lat="59.5527111646" lon="31.2852654979"><ele>53.09</ele><time>2026-09-03T00:22:31Z</time></trkpt><trkpt lat="59.5526918024" lon="31.2853643205"><ele>53.41</ele><time>2026-09-03T00:22:48Z</time></trkpt><trkpt lat="59.5527021959" lon="31.2854859419"><ele>52.75</ele><time>2026-09-03T00:23:08Z</time></trkpt><trkpt lat="59.5527097397" lon="31.2855536677"><ele>52.42</ele><time>2026-09-03T00:23:24Z</time></trkpt><trkpt lat="59.5527103264" lon="31.2855543382"><ele>52.38</ele><time>2026-09-03T00:23:52Z</time></trkpt><trkpt lat="59.5527052972" lon="31.2855224870"><ele>52.37</ele><time>2026-09-03T00:24:26Z</time></trkpt><trkpt lat="59.5526838396" lon="31.2855406757"><ele>53.09</ele><time>2026-09-03T00:24:51Z</time></trkpt><trkpt lat="59.5526933949" lon="31.2855246663"><ele>52.39</ele><time>2026-09-03T00:25:35Z</time></trkpt><trkpt lat="59.5526777208" lon="31.2855041306"><ele>52.15</ele><time>2026-09-03T00:25:53Z</time></trkpt><trkpt lat="59.5526579395" lon="31.2855184637"><ele>52.21</ele><time>2026-09-03T00:26:13Z</time></trkpt><trkpt lat="59.5526577719" lon="31.2855168711"><ele>49.76</ele><time>2026-09-03T00:26:31Z</time></trkpt><trkpt lat="59.5526600350" lon="31.2855150271"><ele>53.06</ele><time>2026-09-03T00:26:35Z</time></trkpt><trkpt lat="59.5526598673" lon="31.2855141889"><ele>53.06</ele><time>2026-09-03T00:26:36Z</time></trkpt><trkpt lat="59.5526350569" lon="31.2855183799"><ele>52.16</ele><time>2026-09-03T00:26:54Z</time></trkpt><trkpt lat="59.5526302792" lon="31.2855106685"><ele>52.27</ele><time>2026-09-03T00:26:55Z</time></trkpt><trkpt lat="59.5525762998" lon="31.2854839303"><ele>52.23</ele><time>2026-09-03T00:27:07Z</time></trkpt><trkpt lat="59.5525298640" lon="31.2855488062"><ele>52.03</ele><time>2026-09-03T00:27:32Z</time></trkpt><trkpt lat="59.5524801593" lon="31.2855376583"><ele>51.95</ele><time>2026-09-03T00:27:51Z</time></trkpt><trkpt lat="59.5524775609" lon="31.2855378259"><ele>52.16</ele><time>2026-09-03T00:27:52Z</time></trkpt><trkpt lat="59.5524149481" lon="31.2855039630"><ele>52.15</ele><time>2026-09-03T00:28:06Z</time></trkpt><trkpt lat="59.5524109248" lon="31.2855651509"><ele>52.18</ele><time>2026-09-03T00:28:30Z</time></trkpt><trkpt lat="59.5523524191" lon="31.2856560946"><ele>52.05</ele><time>2026-09-03T00:28:44Z</time></trkpt><trkpt lat="59.5523261838" lon="31.2857140973"><ele>51.93</ele><time>2026-09-03T00:28:57Z</time></trkpt><trkpt lat="59.5523086656" lon="31.2857808173"><ele>52.16</ele><time>2026-09-03T00:29:08Z</time></trkpt><trkpt lat="59.5522856992" lon="31.2857744470"><ele>51.93</ele><time>2026-09-03T00:29:24Z</time></trkpt><trkpt lat="59.5522741321" lon="31.2857510615"><ele>51.83</ele><time>2026-09-03T00:29:26Z</time></trkpt><trkpt lat="59.5522483997" lon="31.2857871875"><ele>52.03</ele><time>2026-09-03T00:29:36Z</time></trkpt><trkpt lat="59.5522303786" lon="31.2857867684"><ele>52.01</ele><time>2026-09-03T00:29:54Z</time></trkpt><trkpt lat="59.5522211585" lon="31.2857579347"><ele>51.77</ele><time>2026-09-03T00:30:08Z</time></trkpt><trkpt lat="59.5521767344" lon="31.2856859341"><ele>51.65</ele><time>2026-09-03T00:30:25Z</time></trkpt><trkpt lat="59.5521338191" lon="31.2857385725"><ele>51.80</ele><time>2026-09-03T00:30:43Z</time></trkpt><trkpt lat="59.5520931669" lon="31.2857569288"><ele>51.59</ele><time>2026-09-03T00:31:00Z</time></trkpt><trkpt lat="59.5520681888" lon="31.2857734412"><ele>51.66</ele><time>2026-09-03T00:31:21Z</time></trkpt><trkpt lat="59.5520458929" lon="31.2857865170"><ele>51.80</ele><time>2026-09-03T00:31:31Z</time></trkpt><trkpt lat="59.5520247705" lon="31.2857890315"><ele>51.83</ele><time>2026-09-03T00:31:45Z</time></trkpt><trkpt lat="59.5520090126" lon="31.2858290970"><ele>51.69</ele><time>2026-09-03T00:32:05Z</time></trkpt><trkpt lat="59.5519808494" lon="31.2857738603"><ele>51.06</ele><time>2026-09-03T00:32:28Z</time></trkpt><trkpt lat="59.5519196615" lon="31.2857589405"><ele>51.53</ele><time>2026-09-03T00:32:47Z</time></trkpt><trkpt lat="59.5518842898" lon="31.2857470382"><ele>51.82</ele><time>2026-09-03T00:33:00Z</time></trkpt><trkpt lat="59.5518551208" lon="31.2857958209"><ele>51.99</ele><time>2026-09-03T00:33:20Z</time></trkpt><trkpt lat="59.5518685319" lon="31.2857516482"><ele>52.07</ele><time>2026-09-03T00:33:48Z</time></trkpt><trkpt lat="59.5518637542" lon="31.2857319508"><ele>51.98</ele><time>2026-09-03T00:34:34Z</time></trkpt><trkpt lat="59.5518392790" lon="31.2857304420"><ele>52.45</ele><time>2026-09-03T00:34:57Z</time></trkpt><trkpt lat="59.5517855510" lon="31.2856477965"><ele>52.09</ele><time>2026-09-03T00:35:13Z</time></trkpt><trkpt lat="59.5517539512" lon="31.2855877820"><ele>52.24</ele><time>2026-09-03T00:35:28Z</time></trkpt><trkpt lat="59.5517001394" lon="31.2855659891"><ele>52.36</ele><time>2026-09-03T00:35:39Z</time></trkpt><trkpt lat="59.5516730659" lon="31.2854856905"><ele>51.92</ele><time>2026-09-03T00:35:53Z</time></trkpt><trkpt lat="59.5516540390" lon="31.2854267657"><ele>52.38</ele><time>2026-09-03T00:36:14Z</time></trkpt><trkpt lat="59.5516010653" lon="31.2854549289"><ele>52.53</ele><time>2026-09-03T00:36:33Z</time></trkpt><trkpt lat="59.5515375305" lon="31.2854524981"><ele>52.33</ele><time>2026-09-03T00:36:56Z</time></trkpt><trkpt lat="59.5514854789" lon="31.2853923999"><ele>52.54</ele><time>2026-09-03T00:37:15Z</time></trkpt><trkpt lat="59.5514408872" lon="31.2853743788"><ele>52.87</ele><time>2026-09-03T00:37:28Z</time></trkpt><trkpt lat="59.5514007378" lon="31.2853506580"><ele>52.32</ele><time>2026-09-03T00:37:43Z</time></trkpt><trkpt lat="59.5513296593" lon="31.2853667513"><ele>52.62</ele><time>2026-09-03T00:38:08Z</time></trkpt><trkpt lat="59.5512558986" lon="31.2853788212"><ele>52.45</ele><time>2026-09-03T00:38:31Z</time></trkpt><trkpt lat="59.5511867478" lon="31.2853467185"><ele>52.31</ele><time>2026-09-03T00:38:44Z</time></trkpt><trkpt lat="59.5510860812" lon="31.2852785736"><ele>52.64</ele><time>2026-09-03T00:39:12Z</time></trkpt><trkpt lat="59.5510306768" lon="31.2851975206"><ele>52.80</ele><time>2026-09-03T00:39:28Z</time></trkpt><trkpt lat="59.5510141645" lon="31.2852011248"><ele>52.85</ele><time>2026-09-03T00:39:56Z</time></trkpt><trkpt lat="59.5509938803" lon="31.2852092553"><ele>52.37</ele><time>2026-09-03T00:40:49Z</time></trkpt><trkpt lat="59.5509663876" lon="31.2852343172"><ele>52.51</ele><time>2026-09-03T00:40:57Z</time></trkpt><trkpt lat="59.5508905314" lon="31.2852382567"><ele>52.83</ele><time>2026-09-03T00:41:10Z</time></trkpt><trkpt lat="59.5508616976" lon="31.2852614745"><ele>52.64</ele><time>2026-09-03T00:41:26Z</time></trkpt><trkpt lat="59.5507772919" lon="31.2852423638"><ele>52.66</ele><time>2026-09-03T00:41:43Z</time></trkpt><trkpt lat="59.5507512242" lon="31.2852148712"><ele>52.79</ele><time>2026-09-03T00:41:53Z</time></trkpt><trkpt lat="59.5507065486" lon="31.2851129472"><ele>52.87</ele><time>2026-09-03T00:42:04Z</time></trkpt><trkpt lat="59.5506697521" lon="31.2851341534"><ele>52.66</ele><time>2026-09-03T00:42:18Z</time></trkpt><trkpt lat="59.5505775511" lon="31.2851545215"><ele>53.34</ele><time>2026-09-03T00:42:32Z</time></trkpt><trkpt lat="59.5505010244" lon="31.2851501629"><ele>53.17</ele><time>2026-09-03T00:42:50Z</time></trkpt><trkpt lat="59.5503897965" lon="31.2850633264"><ele>53.59</ele><time>2026-09-03T00:43:06Z</time></trkpt><trkpt lat="59.5503213163" lon="31.2849927507"><ele>54.01</ele><time>2026-09-03T00:43:25Z</time></trkpt><trkpt lat="59.5502348989" lon="31.2849710416"><ele>54.79</ele><time>2026-09-03T00:43:42Z</time></trkpt><trkpt lat="59.5501642395" lon="31.2849683594"><ele>54.97</ele><time>2026-09-03T00:43:59Z</time></trkpt><trkpt lat="59.5501399320" lon="31.2850124482"><ele>55.60</ele><time>2026-09-03T00:44:17Z</time></trkpt><trkpt lat="59.5500559453" lon="31.2851663399"><ele>55.83</ele><time>2026-09-03T00:44:28Z</time></trkpt><trkpt lat="59.5499697793" lon="31.2853011210"><ele>56.02</ele><time>2026-09-03T00:44:47Z</time></trkpt><trkpt lat="59.5498794224" lon="31.2853288651"><ele>54.86</ele><time>2026-09-03T00:45:00Z</time></trkpt><trkpt lat="59.5498904865" lon="31.2853336427"><ele>55.14</ele><time>2026-09-03T00:45:20Z</time></trkpt><trkpt lat="59.5499073341" lon="31.2853842694"><ele>54.92</ele><time>2026-09-03T00:45:49Z</time></trkpt><trkpt lat="59.5499040652" lon="31.2854120973"><ele>54.98</ele><time>2026-09-03T00:46:14Z</time></trkpt><trkpt lat="59.5498820208" lon="31.2853365764"><ele>55.19</ele><time>2026-09-03T00:46:46Z</time></trkpt><trkpt lat="59.5498605631" lon="31.2853450421"><ele>54.98</ele><time>2026-09-03T00:47:35Z</time></trkpt><trkpt lat="59.5498765726" lon="31.2853546813"><ele>55.12</ele><time>2026-09-03T00:48:35Z</time></trkpt><trkpt lat="59.5498900674" lon="31.2853262667"><ele>54.97</ele><time>2026-09-03T00:49:09Z</time></trkpt><trkpt lat="59.5498353336" lon="31.2850630749"><ele>55.04</ele><time>2026-09-03T00:49:22Z</time></trkpt><trkpt lat="59.5497510955" lon="31.2847959436"><ele>54.95</ele><time>2026-09-03T00:49:39Z</time></trkpt><trkpt lat="59.5496847946" lon="31.2846219353"><ele>54.87</ele><time>2026-09-03T00:49:49Z</time></trkpt><trkpt lat="59.5495981257" lon="31.2844284810"><ele>54.73</ele><time>2026-09-03T00:50:03Z</time></trkpt><trkpt lat="59.5495740697" lon="31.2842612620"><ele>54.65</ele><time>2026-09-03T00:50:09Z</time></trkpt><trkpt lat="59.5494963694" lon="31.2840064522"><ele>54.75</ele><time>2026-09-03T00:50:23Z</time></trkpt><trkpt lat="59.5494449884" lon="31.2837892771"><ele>55.13</ele><time>2026-09-03T00:50:37Z</time></trkpt><trkpt lat="59.5493903384" lon="31.2835570984"><ele>55.30</ele><time>2026-09-03T00:50:52Z</time></trkpt><trkpt lat="59.5493349340" lon="31.2833835930"><ele>55.02</ele><time>2026-09-03T00:51:17Z</time></trkpt><trkpt lat="59.5493157394" lon="31.2834053859"><ele>54.87</ele><time>2026-09-03T00:51:49Z</time></trkpt><trkpt lat="59.5492967963" lon="31.2833959144"><ele>54.65</ele><time>2026-09-03T00:52:10Z</time></trkpt><trkpt lat="59.5492594969" lon="31.2831691839"><ele>54.73</ele><time>2026-09-03T00:52:23Z</time></trkpt><trkpt lat="59.5492559765" lon="31.2830956746"><ele>54.45</ele><time>2026-09-03T00:52:27Z</time></trkpt><trkpt lat="59.5492173359" lon="31.2830029707"><ele>54.40</ele><time>2026-09-03T00:52:33Z</time></trkpt><trkpt lat="59.5491531305" lon="31.2827754859"><ele>54.64</ele><time>2026-09-03T00:52:46Z</time></trkpt><trkpt lat="59.5491231233" lon="31.2826288864"><ele>54.38</ele><time>2026-09-03T00:52:55Z</time></trkpt><trkpt lat="59.5491094608" lon="31.2825974543"><ele>54.28</ele><time>2026-09-03T00:52:57Z</time></trkpt><trkpt lat="59.5490577444" lon="31.2825033255"><ele>53.82</ele><time>2026-09-03T00:53:13Z</time></trkpt><trkpt lat="59.5490560681" lon="31.2823159900"><ele>54.19</ele><time>2026-09-03T00:53:25Z</time></trkpt><trkpt lat="59.5490272343" lon="31.2821977213"><ele>53.95</ele><time>2026-09-03T00:53:31Z</time></trkpt><trkpt lat="59.5489938743" lon="31.2820260599"><ele>54.44</ele><time>2026-09-03T00:53:40Z</time></trkpt><trkpt lat="59.5489744283" lon="31.2817859184"><ele>54.61</ele><time>2026-09-03T00:53:55Z</time></trkpt><trkpt lat="59.5489502884" lon="31.2815594394"><ele>54.49</ele><time>2026-09-03T00:54:08Z</time></trkpt><trkpt lat="59.5489499532" lon="31.2815422565"><ele>54.44</ele><time>2026-09-03T00:55:02Z</time></trkpt><trkpt lat="59.5489347819" lon="31.2814293522"><ele>54.46</ele><time>2026-09-03T00:55:21Z</time></trkpt><trkpt lat="59.5489129890" lon="31.2812321261"><ele>54.79</ele><time>2026-09-03T00:55:33Z</time></trkpt><trkpt lat="59.5488677267" lon="31.2809917331"><ele>54.70</ele><time>2026-09-03T00:55:44Z</time></trkpt><trkpt lat="59.5488119870" lon="31.2807165552"><ele>54.89</ele><time>2026-09-03T00:55:58Z</time></trkpt><trkpt lat="59.5487969834" lon="31.2806320656"><ele>54.92</ele><time>2026-09-03T00:56:02Z</time></trkpt><trkpt lat="59.5487300958" lon="31.2803385314"><ele>54.41</ele><time>2026-09-03T00:56:16Z</time></trkpt><trkpt lat="59.5486892760" lon="31.2800340168"><ele>54.38</ele><time>2026-09-03T00:56:30Z</time></trkpt><trkpt lat="59.5486825705" lon="31.2799854856"><ele>53.89</ele><time>2026-09-03T00:56:32Z</time></trkpt><trkpt lat="59.5486253221" lon="31.2797235511"><ele>54.14</ele><time>2026-09-03T00:56:46Z</time></trkpt><trkpt lat="59.5486185327" lon="31.2795670610"><ele>54.51</ele><time>2026-09-03T00:57:02Z</time></trkpt><trkpt lat="59.5485663973" lon="31.2794446852"><ele>53.99</ele><time>2026-09-03T00:57:11Z</time></trkpt><trkpt lat="59.5485506393" lon="31.2793801446"><ele>54.18</ele><time>2026-09-03T00:57:14Z</time></trkpt><trkpt lat="59.5485374797" lon="31.2792116683"><ele>53.90</ele><time>2026-09-03T00:57:33Z</time></trkpt><trkpt lat="59.5485434309" lon="31.2792494707"><ele>53.98</ele><time>2026-09-03T00:58:14Z</time></trkpt><trkpt lat="59.5485154353" lon="31.2790979259"><ele>53.59</ele><time>2026-09-03T00:59:05Z</time></trkpt><trkpt lat="59.5484446082" lon="31.2788629811"><ele>53.47</ele><time>2026-09-03T00:59:19Z</time></trkpt><trkpt lat="59.5484140981" lon="31.2787432875"><ele>53.08</ele><time>2026-09-03T00:59:36Z</time></trkpt><trkpt lat="59.5483801514" lon="31.2785959337"><ele>53.19</ele><time>2026-09-03T00:59:49Z</time></trkpt><trkpt lat="59.5483751222" lon="31.2784040719"><ele>53.51</ele><time>2026-09-03T01:00:04Z</time></trkpt><trkpt lat="59.5483504795" lon="31.2782942690"><ele>53.18</ele><time>2026-09-03T01:00:29Z</time></trkpt><trkpt lat="59.5482904650" lon="31.2780498527"><ele>53.42</ele><time>2026-09-03T01:00:52Z</time></trkpt><trkpt lat="59.5482571889" lon="31.2777190190"><ele>53.82</ele><time>2026-09-03T01:01:05Z</time></trkpt><trkpt lat="59.5482285228" lon="31.2775779516"><ele>53.61</ele><time>2026-09-03T01:01:25Z</time></trkpt><trkpt lat="59.5481923968" lon="31.2773952261"><ele>53.95</ele><time>2026-09-03T01:01:40Z</time></trkpt><trkpt lat="59.5481421892" lon="31.2772472855"><ele>54.12</ele><time>2026-09-03T01:02:04Z</time></trkpt><trkpt lat="59.5481383335" lon="31.2771082297"><ele>54.11</ele><time>2026-09-03T01:02:50Z</time></trkpt><trkpt lat="59.5481313765" lon="31.2770275958"><ele>53.80</ele><time>2026-09-03T01:03:05Z</time></trkpt><trkpt lat="59.5481165405" lon="31.2768201437"><ele>53.91</ele><time>2026-09-03T01:03:28Z</time></trkpt><trkpt lat="59.5480492339" lon="31.2765656691"><ele>53.73</ele><time>2026-09-03T01:03:41Z</time></trkpt><trkpt lat="59.5479470585" lon="31.2763502542"><ele>53.53</ele><time>2026-09-03T01:03:56Z</time></trkpt><trkpt lat="59.5479412749" lon="31.2763368431"><ele>53.51</ele><time>2026-09-03T01:03:57Z</time></trkpt><trkpt lat="59.5478272811" lon="31.2760668620"><ele>53.55</ele><time>2026-09-03T01:04:11Z</time></trkpt><trkpt lat="59.5477768220" lon="31.2759113777"><ele>53.72</ele><time>2026-09-03T01:04:19Z</time></trkpt><trkpt lat="59.5477296319" lon="31.2757052667"><ele>53.68</ele><time>2026-09-03T01:04:31Z</time></trkpt><trkpt lat="59.5477289613" lon="31.2756706495"><ele>53.46</ele><time>2026-09-03T01:05:15Z</time></trkpt><trkpt lat="59.5477019716" lon="31.2755120639"><ele>53.11</ele><time>2026-09-03T01:05:32Z</time></trkpt><trkpt lat="59.5476492494" lon="31.2752461899"><ele>53.57</ele><time>2026-09-03T01:05:46Z</time></trkpt><trkpt lat="59.5476303902" lon="31.2749898713"><ele>53.11</ele><time>2026-09-03T01:05:58Z</time></trkpt><trkpt lat="59.5476177335" lon="31.2747925613"><ele>52.84</ele><time>2026-09-03T01:06:14Z</time></trkpt><trkpt lat="59.5476299711" lon="31.2745886296"><ele>52.63</ele><time>2026-09-03T01:06:27Z</time></trkpt><trkpt lat="59.5475759916" lon="31.2742342427"><ele>51.77</ele><time>2026-09-03T01:06:42Z</time></trkpt><trkpt lat="59.5475818589" lon="31.2740439735"><ele>51.49</ele><time>2026-09-03T01:06:56Z</time></trkpt><trkpt lat="59.5475743990" lon="31.2739659380"><ele>51.43</ele><time>2026-09-03T01:07:00Z</time></trkpt><trkpt lat="59.5475492533" lon="31.2737668678"><ele>51.11</ele><time>2026-09-03T01:07:14Z</time></trkpt><trkpt lat="59.5475312322" lon="31.2737233657"><ele>50.87</ele><time>2026-09-03T01:07:28Z</time></trkpt><trkpt lat="59.5475780871" lon="31.2737047579"><ele>51.12</ele><time>2026-09-03T01:07:46Z</time></trkpt><trkpt lat="59.5475474931" lon="31.2737222761"><ele>51.10</ele><time>2026-09-03T01:08:05Z</time></trkpt><trkpt lat="59.5475850441" lon="31.2736056838"><ele>50.89</ele><time>2026-09-03T01:08:17Z</time></trkpt><trkpt lat="59.5476226788" lon="31.2734129839"><ele>51.11</ele><time>2026-09-03T01:08:28Z</time></trkpt><trkpt lat="59.5476722997" lon="31.2731957249"><ele>51.17</ele><time>2026-09-03T01:08:44Z</time></trkpt><trkpt lat="59.5477855392" lon="31.2729822379"><ele>50.95</ele><time>2026-09-03T01:09:01Z</time></trkpt><trkpt lat="59.5478883013" lon="31.2726818305"><ele>51.40</ele><time>2026-09-03T01:09:18Z</time></trkpt><trkpt lat="59.5479107648" lon="31.2723926548"><ele>51.16</ele><time>2026-09-03T01:09:33Z</time></trkpt><trkpt lat="59.5479719527" lon="31.2721777428"><ele>50.85</ele><time>2026-09-03T01:09:44Z</time></trkpt><trkpt lat="59.5479972661" lon="31.2720015552"><ele>50.79</ele><time>2026-09-03T01:10:02Z</time></trkpt><trkpt lat="59.5479709469" lon="31.2718913332"><ele>50.84</ele><time>2026-09-03T01:10:31Z</time></trkpt><trkpt lat="59.5480479766" lon="31.2717213482"><ele>50.50</ele><time>2026-09-03T01:10:44Z</time></trkpt><trkpt lat="59.5480793249" lon="31.2715499382"><ele>50.36</ele><time>2026-09-03T01:10:59Z</time></trkpt><trkpt lat="59.5480689313" lon="31.2714164983"><ele>49.89</ele><time>2026-09-03T01:11:15Z</time></trkpt><trkpt lat="59.5481205638" lon="31.2712399755"><ele>49.87</ele><time>2026-09-03T01:11:29Z</time></trkpt><trkpt lat="59.5481247548" lon="31.2711452600"><ele>49.38</ele><time>2026-09-03T01:11:40Z</time></trkpt><trkpt lat="59.5481718611" lon="31.2711462658"><ele>49.58</ele><time>2026-09-03T01:12:00Z</time></trkpt><trkpt lat="59.5481978450" lon="31.2710988242"><ele>49.57</ele><time>2026-09-03T01:12:08Z</time></trkpt><trkpt lat="59.5482381620" lon="31.2710366305"><ele>49.72</ele><time>2026-09-03T01:12:14Z</time></trkpt><trkpt lat="59.5482607931" lon="31.2709034421"><ele>49.94</ele><time>2026-09-03T01:12:26Z</time></trkpt><trkpt lat="59.5483057201" lon="31.2706915475"><ele>50.14</ele><time>2026-09-03T01:12:40Z</time></trkpt><trkpt lat="59.5482995175" lon="31.2706462853"><ele>50.27</ele><time>2026-09-03T01:13:01Z</time></trkpt><trkpt lat="59.5482853521" lon="31.2705095764"><ele>50.89</ele><time>2026-09-03T01:13:16Z</time></trkpt><trkpt lat="59.5482431911" lon="31.2703245878"><ele>50.75</ele><time>2026-09-03T01:13:27Z</time></trkpt><trkpt lat="59.5482456218" lon="31.2701032218"><ele>50.77</ele><time>2026-09-03T01:13:38Z</time></trkpt><trkpt lat="59.5482285228" lon="31.2698709592"><ele>50.35</ele><time>2026-09-03T01:13:52Z</time></trkpt><trkpt lat="59.5481880382" lon="31.2695214339"><ele>50.30</ele><time>2026-09-03T01:14:10Z</time></trkpt><trkpt lat="59.5481449552" lon="31.2692773528"><ele>49.21</ele><time>2026-09-03T01:14:29Z</time></trkpt><trkpt lat="59.5481371600" lon="31.2690848205"><ele>49.40</ele><time>2026-09-03T01:14:44Z</time></trkpt><trkpt lat="59.5481319632" lon="31.2690322660"><ele>47.40</ele><time>2026-09-03T01:14:47Z</time></trkpt><trkpt lat="59.5481325500" lon="31.2689166795"><ele>49.66</ele><time>2026-09-03T01:14:57Z</time></trkpt><trkpt lat="59.5481474698" lon="31.2687837426"><ele>49.46</ele><time>2026-09-03T01:15:11Z</time></trkpt><trkpt lat="59.5481660776" lon="31.2686494645"><ele>49.42</ele><time>2026-09-03T01:15:27Z</time></trkpt><trkpt lat="59.5481609646" lon="31.2685137615"><ele>49.89</ele><time>2026-09-03T01:15:44Z</time></trkpt><trkpt lat="59.5481670834" lon="31.2684759591"><ele>49.45</ele><time>2026-09-03T01:16:10Z</time></trkpt><trkpt lat="59.5481503196" lon="31.2684625480"><ele>49.11</ele><time>2026-09-03T01:16:58Z</time></trkpt><trkpt lat="59.5481704362" lon="31.2685581855"><ele>48.94</ele><time>2026-09-03T01:17:12Z</time></trkpt><trkpt lat="59.5482056402" lon="31.2684916332"><ele>48.81</ele><time>2026-09-03T01:17:33Z</time></trkpt><trkpt lat="59.5482376590" lon="31.2684695888"><ele>48.66</ele><time>2026-09-03T01:17:55Z</time></trkpt><trkpt lat="59.5482659899" lon="31.2683807407"><ele>49.06</ele><time>2026-09-03T01:18:06Z</time></trkpt><trkpt lat="59.5482897945" lon="31.2680724543"><ele>48.54</ele><time>2026-09-03T01:18:39Z</time></trkpt><trkpt lat="59.5482917223" lon="31.2677869666"><ele>48.67</ele><time>2026-09-03T01:18:50Z</time></trkpt><trkpt lat="59.5482853521" lon="31.2676237710"><ele>48.73</ele><time>2026-09-03T01:19:05Z</time></trkpt><trkpt lat="59.5483170357" lon="31.2675316539"><ele>48.75</ele><time>2026-09-03T01:19:16Z</time></trkpt><trkpt lat="59.5483054686" lon="31.2672955357"><ele>48.19</ele><time>2026-09-03T01:19:31Z</time></trkpt><trkpt lat="59.5483090729" lon="31.2670755945"><ele>47.27</ele><time>2026-09-03T01:19:43Z</time></trkpt><trkpt lat="59.5482574403" lon="31.2668000814"><ele>46.51</ele><time>2026-09-03T01:19:59Z</time></trkpt><trkpt lat="59.5481286943" lon="31.2666178588"><ele>46.21</ele><time>2026-09-03T01:20:13Z</time></trkpt><trkpt lat="59.5480787382" lon="31.2664329540"><ele>46.41</ele><time>2026-09-03T01:20:24Z</time></trkpt><trkpt lat="59.5480134431" lon="31.2663040403"><ele>46.02</ele><time>2026-09-03T01:20:36Z</time></trkpt><trkpt lat="59.5479702763" lon="31.2662295252"><ele>45.87</ele><time>2026-09-03T01:20:49Z</time></trkpt><trkpt lat="59.5478911512" lon="31.2662099954"><ele>45.92</ele><time>2026-09-03T01:21:01Z</time></trkpt><trkpt lat="59.5478125289" lon="31.2661245838"><ele>46.13</ele><time>2026-09-03T01:21:15Z</time></trkpt><trkpt lat="59.5477018878" lon="31.2660041358"><ele>46.24</ele><time>2026-09-03T01:21:28Z</time></trkpt><trkpt lat="59.5476685278" lon="31.2659828458"><ele>46.25</ele><time>2026-09-03T01:21:42Z</time></trkpt><trkpt lat="59.5476279594" lon="31.2658995297"><ele>46.11</ele><time>2026-09-03T01:21:55Z</time></trkpt><trkpt lat="59.5475554559" lon="31.2658147886"><ele>45.78</ele><time>2026-09-03T01:22:11Z</time></trkpt><trkpt lat="59.5475043263" lon="31.2657049857"><ele>45.89</ele><time>2026-09-03T01:22:24Z</time></trkpt><trkpt lat="59.5474479999" lon="31.2655064184"><ele>46.42</ele><time>2026-09-03T01:22:43Z</time></trkpt><trkpt lat="59.5474016480" lon="31.2653413787"><ele>45.90</ele><time>2026-09-03T01:22:59Z</time></trkpt><trkpt lat="59.5473658573" lon="31.2651352677"><ele>46.03</ele><time>2026-09-03T01:23:12Z</time></trkpt><trkpt lat="59.5473554637" lon="31.2649191823"><ele>46.41</ele><time>2026-09-03T01:23:24Z</time></trkpt><trkpt lat="59.5473420527" lon="31.2647320982"><ele>46.51</ele><time>2026-09-03T01:23:36Z</time></trkpt><trkpt lat="59.5473172422" lon="31.2644851673"><ele>46.16</ele><time>2026-09-03T01:23:49Z</time></trkpt><trkpt lat="59.5473251212" lon="31.2642957363"><ele>46.04</ele><time>2026-09-03T01:24:03Z</time></trkpt><trkpt lat="59.5473292284" lon="31.2642774638"><ele>46.14</ele><time>2026-09-03T01:24:04Z</time></trkpt><trkpt lat="59.5473823696" lon="31.2641092390"><ele>46.34</ele><time>2026-09-03T01:24:15Z</time></trkpt><trkpt lat="59.5474056713" lon="31.2640335504"><ele>46.28</ele><time>2026-09-03T01:24:19Z</time></trkpt><trkpt lat="59.5474284701" lon="31.2639522459"><ele>45.95</ele><time>2026-09-03T01:24:23Z</time></trkpt><trkpt lat="59.5474461559" lon="31.2637389265"><ele>45.53</ele><time>2026-09-03T01:24:39Z</time></trkpt><trkpt lat="59.5474537835" lon="31.2637547683"><ele>45.33</ele><time>2026-09-03T01:25:07Z</time></trkpt><trkpt lat="59.5474481676" lon="31.2637386750"><ele>45.36</ele><time>2026-09-03T01:25:43Z</time></trkpt><trkpt lat="59.5474718884" lon="31.2637589592"><ele>45.42</ele><time>2026-09-03T01:25:57Z</time></trkpt><trkpt lat="59.5474797674" lon="31.2637371663"><ele>45.52</ele><time>2026-09-03T01:26:21Z</time></trkpt><trkpt lat="59.5475108642" lon="31.2637077458"><ele>45.44</ele><time>2026-09-03T01:26:38Z</time></trkpt><trkpt lat="59.5475403685" lon="31.2636002898"><ele>45.79</ele><time>2026-09-03T01:26:43Z</time></trkpt><trkpt lat="59.5476264507" lon="31.2633680273"><ele>46.03</ele><time>2026-09-03T01:26:58Z</time></trkpt><trkpt lat="59.5476455614" lon="31.2633153889"><ele>46.18</ele><time>2026-09-03T01:27:02Z</time></trkpt><trkpt lat="59.5477277879" lon="31.2631265447"><ele>46.71</ele><time>2026-09-03T01:27:13Z</time></trkpt><trkpt lat="59.5478106849" lon="31.2630123831"><ele>47.03</ele><time>2026-09-03T01:27:23Z</time></trkpt><trkpt lat="59.5478666760" lon="31.2629445735"><ele>47.47</ele><time>2026-09-03T01:27:30Z</time></trkpt><trkpt lat="59.5479896385" lon="31.2629028317"><ele>48.02</ele><time>2026-09-03T01:27:43Z</time></trkpt><trkpt lat="59.5480322186" lon="31.2628822960"><ele>47.91</ele><time>2026-09-03T01:27:47Z</time></trkpt><trkpt lat="59.5480719488" lon="31.2627310865"><ele>49.20</ele><time>2026-09-03T01:27:58Z</time></trkpt><trkpt lat="59.5481326338" lon="31.2624378875"><ele>50.73</ele><time>2026-09-03T01:28:12Z</time></trkpt><trkpt lat="59.5481470507" lon="31.2623864226"><ele>50.92</ele><time>2026-09-03T01:28:15Z</time></trkpt><trkpt lat="59.5481576957" lon="31.2623510510"><ele>50.95</ele><time>2026-09-03T01:28:17Z</time></trkpt><trkpt lat="59.5481871162" lon="31.2622446008"><ele>51.35</ele><time>2026-09-03T01:28:23Z</time></trkpt><trkpt lat="59.5482562669" lon="31.2620501406"><ele>52.39</ele><time>2026-09-03T01:28:38Z</time></trkpt><trkpt lat="59.5482779760" lon="31.2619908806"><ele>53.13</ele><time>2026-09-03T01:29:08Z</time></trkpt><trkpt lat="59.5483824983" lon="31.2617629766"><ele>54.44</ele><time>2026-09-03T01:29:22Z</time></trkpt><trkpt lat="59.5484235696" lon="31.2617283594"><ele>54.90</ele><time>2026-09-03T01:29:46Z</time></trkpt><trkpt lat="59.5484424289" lon="31.2616995256"><ele>54.81</ele><time>2026-09-03T01:30:02Z</time></trkpt><trkpt lat="59.5485042874" lon="31.2615545187"><ele>55.57</ele><time>2026-09-03T01:30:15Z</time></trkpt><trkpt lat="59.5485543273" lon="31.2615874596"><ele>55.76</ele><time>2026-09-03T01:30:29Z</time></trkpt><trkpt lat="59.5487328619" lon="31.2616346497"><ele>55.82</ele><time>2026-09-03T01:30:49Z</time></trkpt><trkpt lat="59.5488727558" lon="31.2617520802"><ele>55.99</ele><time>2026-09-03T01:31:06Z</time></trkpt><trkpt lat="59.5490273181" lon="31.2619027030"><ele>55.90</ele><time>2026-09-03T01:31:22Z</time></trkpt><trkpt lat="59.5491817966" lon="31.2619949877"><ele>56.14</ele><time>2026-09-03T01:31:41Z</time></trkpt><trkpt lat="59.5493254624" lon="31.2620178703"><ele>56.30</ele><time>2026-09-03T01:31:57Z</time></trkpt><trkpt lat="59.5494420547" lon="31.2621033657"><ele>56.53</ele><time>2026-09-03T01:32:20Z</time></trkpt><trkpt lat="59.5495805237" lon="31.2622023560"><ele>55.56</ele><time>2026-09-03T01:32:37Z</time></trkpt><trkpt lat="59.5497353375" lon="31.2621710915"><ele>56.31</ele><time>2026-09-03T01:32:57Z</time></trkpt><trkpt lat="59.5498323999" lon="31.2620524876"><ele>56.32</ele><time>2026-09-03T01:33:08Z</time></trkpt><trkpt lat="59.5499767363" lon="31.2619606219"><ele>56.67</ele><time>2026-09-03T01:33:36Z</time></trkpt><trkpt lat="59.5501586236" lon="31.2619975861"><ele>56.84</ele><time>2026-09-03T01:33:53Z</time></trkpt><trkpt lat="59.5503892936" lon="31.2619881984"><ele>57.08</ele><time>2026-09-03T01:34:09Z</time></trkpt><trkpt lat="59.5505251642" lon="31.2618208956"><ele>57.21</ele><time>2026-09-03T01:34:22Z</time></trkpt><trkpt lat="59.5505873580" lon="31.2616923172"><ele>57.44</ele><time>2026-09-03T01:34:41Z</time></trkpt><trkpt lat="59.5506129228" lon="31.2615785748"><ele>57.61</ele><time>2026-09-03T01:34:47Z</time></trkpt><trkpt lat="59.5506518986" lon="31.2613896467"><ele>57.13</ele><time>2026-09-03T01:35:00Z</time></trkpt><trkpt lat="59.5506713446" lon="31.2612134591"><ele>57.72</ele><time>2026-09-03T01:35:14Z</time></trkpt><trkpt lat="59.5506690815" lon="31.2611112837"><ele>57.55</ele><time>2026-09-03T01:35:32Z</time></trkpt><trkpt lat="59.5507090632" lon="31.2609158177"><ele>57.70</ele><time>2026-09-03T01:35:47Z</time></trkpt><trkpt lat="59.5507675689" lon="31.2607027497"><ele>57.74</ele><time>2026-09-03T01:36:06Z</time></trkpt><trkpt lat="59.5508307684" lon="31.2605571561"><ele>58.10</ele><time>2026-09-03T01:36:16Z</time></trkpt><trkpt lat="59.5509040263" lon="31.2603536434"><ele>58.31</ele><time>2026-09-03T01:36:28Z</time></trkpt><trkpt lat="59.5509323571" lon="31.2601840775"><ele>59.25</ele><time>2026-09-03T01:36:42Z</time></trkpt><trkpt lat="59.5509987418" lon="31.2601380609"><ele>58.80</ele><time>2026-09-03T01:36:55Z</time></trkpt><trkpt lat="59.5510620251" lon="31.2601201236"><ele>59.66</ele><time>2026-09-03T01:37:10Z</time></trkpt><trkpt lat="59.5510489494" lon="31.2600899488"><ele>59.39</ele><time>2026-09-03T01:37:26Z</time></trkpt><trkpt lat="59.5510622766" lon="31.2600424234"><ele>59.52</ele><time>2026-09-03T01:37:51Z</time></trkpt><trkpt lat="59.5510646235" lon="31.2599959876"><ele>60.02</ele><time>2026-09-03T01:38:06Z</time></trkpt><trkpt lat="59.5510816388" lon="31.2599453609"><ele>58.75</ele><time>2026-09-03T01:38:29Z</time></trkpt><trkpt lat="59.5511148311" lon="31.2599088997"><ele>60.48</ele><time>2026-09-03T01:38:42Z</time></trkpt><trkpt lat="59.5511705708" lon="31.2598803174"><ele>61.41</ele><time>2026-09-03T01:38:58Z</time></trkpt><trkpt lat="59.5511673857" lon="31.2598845921"><ele>60.22</ele><time>2026-09-03T01:39:02Z</time></trkpt></trkseg></trk></gpx>